Wetterdaten: Montag, 19.07.2021
Datum Zeit Temp. Aussen Temp. o. S. Temp +5cm Feuchte Auss Luftdruck Regen Sonnenschein Regendauer Solar Windben Empfang
19.07.2021 00:00 19,7 C 18,3 C 16,7 C 77 % 1022,2 hPa 0,0 l/m 0 min 0 min 0 W/m 6,4 km/h (2 Bft) 95,74 %
19.07.2021 00:02 19,6 C 18,3 C 16,7 C 78 % 1022,1 hPa 0,0 l/m 0 min 0 min 0 W/m 6,4 km/h (2 Bft) 95,00 %
19.07.2021 00:04 19,6 C 18,3 C 16,7 C 78 % 1022,1 hPa 0,0 l/m 0 min 0 min 0 W/m 6,4 km/h (2 Bft) 95,65 %
19.07.2021 00:08 19,5 C 18,3 C 16,7 C 78 % 1022,1 hPa 0,0 l/m 0 min 0 min 0 W/m 6,4 km/h (2 Bft) 97,87 %
19.07.2021 00:10 19,5 C 18,3 C 16,7 C 78 % 1022,2 hPa 0,0 l/m 0 min 0 min 0 W/m 9,7 km/h (2 Bft) 97,87 %
19.07.2021 00:12 19,5 C 18,3 C 16,7 C 79 % 1022,2 hPa 0,0 l/m 0 min 0 min 0 W/m 3,2 km/h (1 Bft) 97,87 %
19.07.2021 00:14 19,4 C 18,3 C 16,1 C 79 % 1022,2 hPa 0,0 l/m 0 min 0 min 0 W/m 6,4 km/h (2 Bft) 95,65 %
19.07.2021 00:16 19,4 C 18,3 C 16,1 C 79 % 1022,2 hPa 0,0 l/m 0 min 0 min 0 W/m 6,4 km/h (2 Bft) 95,74 %
19.07.2021 00:18 19,3 C 17,8 C 16,1 C 79 % 1022,2 hPa 0,0 l/m 0 min 0 min 0 W/m 3,2 km/h (1 Bft) 95,74 %
19.07.2021 00:20 19,3 C 17,8 C 16,1 C 79 % 1022,3 hPa 0,0 l/m 0 min 0 min 0 W/m 3,2 km/h (1 Bft) 97,87 %
19.07.2021 00:22 19,3 C 17,8 C 16,1 C 79 % 1022,2 hPa 0,0 l/m 0 min 0 min 0 W/m 9,7 km/h (2 Bft) 97,87 %
19.07.2021 00:24 19,2 C 17,8 C 16,1 C 79 % 1022,2 hPa 0,0 l/m 0 min 0 min 0 W/m 6,4 km/h (2 Bft) 97,87 %
19.07.2021 00:26 19,1 C 17,8 C 16,1 C 80 % 1022,3 hPa 0,0 l/m 0 min 0 min 0 W/m 6,4 km/h (2 Bft) 97,83 %
19.07.2021 00:28 19,1 C 17,8 C 16,1 C 80 % 1022,2 hPa 0,0 l/m 0 min 0 min 0 W/m 3,2 km/h (1 Bft) 97,87 %
19.07.2021 00:30 19,0 C 17,8 C 16,1 C 80 % 1022,2 hPa 0,0 l/m 0 min 0 min 0 W/m 0,0 km/h (0 Bft) 97,87 %
19.07.2021 00:32 19,0 C 17,8 C 16,1 C 81 % 1022,2 hPa 0,0 l/m 0 min 0 min 0 W/m 6,4 km/h (2 Bft) 95,74 %
19.07.2021 00:34 19,0 C 17,8 C 16,1 C 81 % 1022,2 hPa 0,0 l/m 0 min 0 min 0 W/m 3,2 km/h (1 Bft) 95,74 %
19.07.2021 00:36 18,9 C 17,8 C 16,1 C 81 % 1022,2 hPa 0,0 l/m 0 min 0 min 0 W/m 6,4 km/h (2 Bft) 97,87 %
19.07.2021 00:38 18,9 C 17,8 C 15,6 C 81 % 1022,2 hPa 0,0 l/m 0 min 0 min 0 W/m 6,4 km/h (2 Bft) 97,83 %
19.07.2021 00:40 18,9 C 17,8 C 16,1 C 81 % 1022,2 hPa 0,0 l/m 0 min 0 min 0 W/m 3,2 km/h (1 Bft) 97,87 %
19.07.2021 00:42 18,8 C 17,8 C 15,6 C 81 % 1022,2 hPa 0,0 l/m 0 min 0 min 0 W/m 3,2 km/h (1 Bft) 97,87 %
19.07.2021 00:44 18,8 C 17,8 C 15,6 C 82 % 1022,2 hPa 0,0 l/m 0 min 0 min 0 W/m 3,2 km/h (1 Bft) 97,87 %
19.07.2021 00:46 18,8 C 17,8 C 15,6 C 82 % 1022,2 hPa 0,0 l/m 0 min 0 min 0 W/m 6,4 km/h (2 Bft) 97,87 %
19.07.2021 00:48 18,8 C 17,2 C 15,6 C 82 % 1022,2 hPa 0,0 l/m 0 min 0 min 0 W/m 3,2 km/h (1 Bft) 97,87 %
19.07.2021 00:50 18,7 C 17,2 C 15,6 C 82 % 1022,2 hPa 0,0 l/m 0 min 0 min 0 W/m 6,4 km/h (2 Bft) 97,83 %
19.07.2021 00:52 18,7 C 17,2 C 15,6 C 82 % 1022,2 hPa 0,0 l/m 0 min 0 min 0 W/m 3,2 km/h (1 Bft) 97,87 %
19.07.2021 00:54 18,6 C 17,2 C 15,6 C 82 % 1022,1 hPa 0,0 l/m 0 min 0 min 0 W/m 3,2 km/h (1 Bft) 97,87 %
19.07.2021 00:56 18,6 C 17,2 C 15,6 C 82 % 1022,2 hPa 0,0 l/m 0 min 0 min 0 W/m 3,2 km/h (1 Bft) 95,74 %
19.07.2021 00:58 18,6 C 17,2 C 15,6 C 82 % 1022,2 hPa 0,0 l/m 0 min 0 min 0 W/m 0,0 km/h (0 Bft) 97,87 %
19.07.2021 01:00 18,5 C 17,2 C 15,6 C 82 % 1022,2 hPa 0,0 l/m 0 min 0 min 0 W/m 3,2 km/h (1 Bft) 100,00 %
19.07.2021 01:02 18,5 C 17,2 C 15,6 C 83 % 1022,2 hPa 0,0 l/m 0 min 0 min 0 W/m 3,2 km/h (1 Bft) 97,83 %
19.07.2021 01:04 18,5 C 17,2 C 15,6 C 83 % 1022,2 hPa 0,0 l/m 0 min 0 min 0 W/m 3,2 km/h (1 Bft) 97,87 %
19.07.2021 01:06 18,4 C 17,2 C 15,6 C 83 % 1022,2 hPa 0,0 l/m 0 min 0 min 0 W/m 3,2 km/h (1 Bft) 100,00 %
19.07.2021 01:08 18,4 C 17,2 C 15,6 C 83 % 1022,2 hPa 0,0 l/m 0 min 0 min 0 W/m 3,2 km/h (1 Bft) 100,00 %
19.07.2021 01:10 18,4 C 17,2 C 15,6 C 83 % 1022,2 hPa 0,0 l/m 0 min 0 min 0 W/m 3,2 km/h (1 Bft) 100,00 %
19.07.2021 01:12 18,4 C 17,2 C 15,6 C 83 % 1022,2 hPa 0,0 l/m 0 min 0 min 0 W/m 0,0 km/h (0 Bft) 100,00 %
19.07.2021 01:14 18,3 C 17,2 C 15,6 C 84 % 1022,2 hPa 0,0 l/m 0 min 0 min 0 W/m 3,2 km/h (1 Bft) 100,00 %
19.07.2021 01:16 18,3 C 17,2 C 15,6 C 84 % 1022,2 hPa 0,0 l/m 0 min 0 min 0 W/m 9,7 km/h (2 Bft) 100,00 %
19.07.2021 01:18 18,3 C 17,2 C 15,6 C 84 % 1022,2 hPa 0,0 l/m 0 min 0 min 0 W/m 6,4 km/h (2 Bft) 100,00 %
19.07.2021 01:20 18,3 C 17,2 C 15,6 C 84 % 1022,2 hPa 0,0 l/m 0 min 0 min 0 W/m 12,9 km/h (3 Bft) 100,00 %
19.07.2021 01:22 18,3 C 17,2 C 15,6 C 84 % 1022,2 hPa 0,0 l/m 0 min 0 min 0 W/m 3,2 km/h (1 Bft) 100,00 %
19.07.2021 01:24 18,2 C 17,2 C 15,6 C 84 % 1022,2 hPa 0,0 l/m 0 min 0 min 0 W/m 3,2 km/h (1 Bft) 100,00 %
19.07.2021 01:26 18,2 C 17,2 C 15,6 C 85 % 1022,2 hPa 0,0 l/m 0 min 0 min 0 W/m 3,2 km/h (1 Bft) 97,83 %
19.07.2021 01:28 18,1 C 17,2 C 15,6 C 85 % 1022,2 hPa 0,0 l/m 0 min 0 min 0 W/m 3,2 km/h (1 Bft) 100,00 %
19.07.2021 01:30 18,1 C 17,2 C 15,6 C 85 % 1022,2 hPa 0,0 l/m 0 min 0 min 0 W/m 3,2 km/h (1 Bft) 100,00 %
19.07.2021 01:32 18,1 C 17,2 C 15,6 C 85 % 1022,2 hPa 0,0 l/m 0 min 0 min 0 W/m 6,4 km/h (2 Bft) 100,00 %
19.07.2021 01:34 18,1 C 17,2 C 15,6 C 85 % 1022,1 hPa 0,0 l/m 0 min 0 min 0 W/m 6,4 km/h (2 Bft) 100,00 %
19.07.2021 01:36 18,1 C 17,2 C 15,6 C 86 % 1022,2 hPa 0,0 l/m 0 min 0 min 0 W/m 6,4 km/h (2 Bft) 100,00 %
19.07.2021 01:38 18,1 C 17,2 C 15,6 C 86 % 1022,2 hPa 0,0 l/m 0 min 0 min 0 W/m 6,4 km/h (2 Bft) 100,00 %
19.07.2021 01:40 18,0 C 17,2 C 15,6 C 86 % 1022,2 hPa 0,0 l/m 0 min 0 min 0 W/m 9,7 km/h (2 Bft) 100,00 %
19.07.2021 01:42 18,0 C 17,2 C 15,6 C 86 % 1022,1 hPa 0,0 l/m 0 min 0 min 0 W/m 9,7 km/h (2 Bft) 100,00 %
19.07.2021 01:44 18,0 C 17,2 C 15,6 C 86 % 1022,2 hPa 0,0 l/m 0 min 0 min 0 W/m 6,4 km/h (2 Bft) 100,00 %
19.07.2021 01:46 18,0 C 17,2 C 15,6 C 86 % 1022,2 hPa 0,0 l/m 0 min 0 min 0 W/m 6,4 km/h (2 Bft) 97,87 %
19.07.2021 01:48 18,0 C 17,2 C 15,6 C 86 % 1022,2 hPa 0,0 l/m 0 min 0 min 0 W/m 9,7 km/h (2 Bft) 100,00 %
19.07.2021 01:50 18,0 C 17,2 C 15,6 C 87 % 1022,2 hPa 0,0 l/m 0 min 0 min 0 W/m 6,4 km/h (2 Bft) 100,00 %
19.07.2021 01:52 17,9 C 17,2 C 15,6 C 87 % 1022,2 hPa 0,0 l/m 0 min 0 min 0 W/m 6,4 km/h (2 Bft) 100,00 %
19.07.2021 01:54 17,9 C 17,2 C 15,6 C 87 % 1022,2 hPa 0,0 l/m 0 min 0 min 0 W/m 6,4 km/h (2 Bft) 100,00 %
19.07.2021 01:56 17,9 C 16,7 C 15,6 C 87 % 1022,2 hPa 0,0 l/m 0 min 0 min 0 W/m 6,4 km/h (2 Bft) 97,87 %
19.07.2021 01:58 17,9 C 16,7 C 15,6 C 87 % 1022,2 hPa 0,0 l/m 0 min 0 min 0 W/m 3,2 km/h (1 Bft) 100,00 %
19.07.2021 02:00 17,9 C 16,7 C 15,6 C 87 % 1022,2 hPa 0,0 l/m 0 min 0 min 0 W/m 6,4 km/h (2 Bft) 100,00 %
19.07.2021 02:02 17,9 C 16,7 C 15,6 C 87 % 1022,2 hPa 0,0 l/m 0 min 0 min 0 W/m 9,7 km/h (2 Bft) 97,87 %
19.07.2021 02:04 17,9 C 16,7 C 15,6 C 87 % 1022,2 hPa 0,0 l/m 0 min 0 min 0 W/m 3,2 km/h (1 Bft) 100,00 %
19.07.2021 02:06 17,9 C 16,7 C 15,6 C 87 % 1022,2 hPa 0,0 l/m 0 min 0 min 0 W/m 3,2 km/h (1 Bft) 100,00 %
19.07.2021 02:08 17,8 C 16,7 C 15,6 C 87 % 1022,2 hPa 0,0 l/m 0 min 0 min 0 W/m 3,2 km/h (1 Bft) 100,00 %
19.07.2021 02:10 17,8 C 16,7 C 15,6 C 87 % 1022,2 hPa 0,0 l/m 0 min 0 min 0 W/m 6,4 km/h (2 Bft) 100,00 %
19.07.2021 02:12 17,8 C 16,7 C 15,6 C 87 % 1022,2 hPa 0,0 l/m 0 min 0 min 0 W/m 3,2 km/h (1 Bft) 100,00 %
19.07.2021 02:14 17,8 C 16,7 C 15,6 C 87 % 1022,3 hPa 0,0 l/m 0 min 0 min 0 W/m 3,2 km/h (1 Bft) 100,00 %
19.07.2021 02:16 17,8 C 16,7 C 15,0 C 87 % 1022,3 hPa 0,0 l/m 0 min 0 min 0 W/m 3,2 km/h (1 Bft) 100,00 %
19.07.2021 02:18 17,8 C 16,7 C 15,0 C 87 % 1022,3 hPa 0,0 l/m 0 min 0 min 0 W/m 0,0 km/h (0 Bft) 100,00 %
19.07.2021 02:20 17,7 C 16,7 C 15,0 C 87 % 1022,4 hPa 0,0 l/m 0 min 0 min 0 W/m 0,0 km/h (0 Bft) 100,00 %
19.07.2021 02:22 17,7 C 16,7 C 15,0 C 87 % 1022,3 hPa 0,0 l/m 0 min 0 min 0 W/m 0,0 km/h (0 Bft) 100,00 %
19.07.2021 02:24 17,6 C 16,7 C 15,0 C 87 % 1022,3 hPa 0,0 l/m 0 min 0 min 0 W/m 0,0 km/h (0 Bft) 100,00 %
19.07.2021 02:26 17,6 C 16,7 C 15,0 C 87 % 1022,2 hPa 0,0 l/m 0 min 0 min 0 W/m 0,0 km/h (0 Bft) 97,87 %
19.07.2021 02:28 17,6 C 16,7 C 15,0 C 87 % 1022,2 hPa 0,0 l/m 0 min 0 min 0 W/m 0,0 km/h (0 Bft) 97,87 %
19.07.2021 02:30 17,6 C 16,7 C 15,0 C 88 % 1022,2 hPa 0,0 l/m 0 min 0 min 0 W/m 0,0 km/h (0 Bft) 100,00 %
19.07.2021 02:32 17,5 C 16,1 C 15,0 C 88 % 1022,2 hPa 0,0 l/m 0 min 0 min 0 W/m 0,0 km/h (0 Bft) 97,87 %
19.07.2021 02:34 17,5 C 16,1 C 15,0 C 88 % 1022,1 hPa 0,0 l/m 0 min 0 min 0 W/m 0,0 km/h (0 Bft) 93,62 %
19.07.2021 02:36 17,5 C 16,1 C 15,0 C 88 % 1022,1 hPa 0,0 l/m 0 min 0 min 0 W/m 0,0 km/h (0 Bft) 95,65 %
19.07.2021 02:38 17,5 C 16,1 C 15,0 C 88 % 1022,1 hPa 0,0 l/m 0 min 0 min 0 W/m 3,2 km/h (1 Bft) 95,74 %
19.07.2021 02:40 17,5 C 16,1 C 15,0 C 88 % 1022,1 hPa 0,0 l/m 0 min 0 min 0 W/m 3,2 km/h (1 Bft) 97,87 %
19.07.2021 02:42 17,4 C 16,1 C 15,0 C 88 % 1022,1 hPa 0,0 l/m 0 min 0 min 0 W/m 0,0 km/h (0 Bft) 95,74 %
19.07.2021 02:44 17,4 C 16,1 C 15,0 C 88 % 1022,1 hPa 0,0 l/m 0 min 0 min 0 W/m 6,4 km/h (2 Bft) 97,87 %
19.07.2021 02:46 17,4 C 16,1 C 15,0 C 88 % 1022,1 hPa 0,0 l/m 0 min 0 min 0 W/m 0,0 km/h (0 Bft) 93,62 %
19.07.2021 02:48 17,3 C 16,1 C 15,0 C 88 % 1022,1 hPa 0,0 l/m 0 min 0 min 0 W/m 0,0 km/h (0 Bft) 95,65 %
19.07.2021 02:50 17,3 C 16,1 C 15,0 C 88 % 1022,1 hPa 0,0 l/m 0 min 0 min 0 W/m 3,2 km/h (1 Bft) 95,74 %
19.07.2021 02:52 17,3 C 16,1 C 15,0 C 88 % 1022,1 hPa 0,0 l/m 0 min 0 min 0 W/m 0,0 km/h (0 Bft) 95,74 %
19.07.2021 02:54 17,3 C 16,1 C 15,0 C 89 % 1022,1 hPa 0,0 l/m 0 min 0 min 0 W/m 3,2 km/h (1 Bft) 95,74 %
19.07.2021 02:56 17,2 C 16,1 C 15,0 C 89 % 1022,1 hPa 0,0 l/m 0 min 0 min 0 W/m 3,2 km/h (1 Bft) 95,74 %
19.07.2021 02:58 17,2 C 16,1 C 15,0 C 89 % 1022,1 hPa 0,0 l/m 0 min 0 min 0 W/m 3,2 km/h (1 Bft) 95,74 %
19.07.2021 03:00 17,2 C 16,1 C 15,0 C 89 % 1022,1 hPa 0,0 l/m 0 min 0 min 0 W/m 3,2 km/h (1 Bft) 97,83 %
19.07.2021 03:02 17,1 C 16,1 C 15,0 C 89 % 1022,0 hPa 0,0 l/m 0 min 0 min 0 W/m 0,0 km/h (0 Bft) 95,74 %
19.07.2021 03:04 17,1 C 16,1 C 15,0 C 89 % 1022,0 hPa 0,0 l/m 0 min 0 min 0 W/m 0,0 km/h (0 Bft) 95,74 %
19.07.2021 03:06 17,1 C 16,1 C 15,0 C 89 % 1022,0 hPa 0,0 l/m 0 min 0 min 0 W/m 3,2 km/h (1 Bft) 95,74 %
19.07.2021 03:08 17,1 C 16,1 C 15,0 C 89 % 1022,0 hPa 0,0 l/m 0 min 0 min 0 W/m 3,2 km/h (1 Bft) 95,74 %
19.07.2021 03:10 17,1 C 16,1 C 15,0 C 89 % 1022,0 hPa 0,0 l/m 0 min 0 min 0 W/m 0,0 km/h (0 Bft) 93,62 %
19.07.2021 03:12 17,0 C 16,1 C 15,0 C 89 % 1022,0 hPa 0,0 l/m 0 min 0 min 0 W/m 3,2 km/h (1 Bft) 93,48 %
19.07.2021 03:14 17,0 C 16,1 C 15,0 C 89 % 1022,0 hPa 0,0 l/m 0 min 0 min 0 W/m 0,0 km/h (0 Bft) 72,34 %
19.07.2021 03:16 17,0 C 16,1 C 15,0 C 89 % 1022,0 hPa 0,0 l/m 0 min 0 min 0 W/m 3,2 km/h (1 Bft) 70,00 %
19.07.2021 03:18 17,0 C 16,1 C 15,0 C 89 % 1022,0 hPa 0,0 l/m 0 min 0 min 0 W/m 6,4 km/h (2 Bft) 93,62 %
19.07.2021 03:20 17,0 C 16,1 C 15,0 C 89 % 1022,0 hPa 0,0 l/m 0 min 0 min 0 W/m 3,2 km/h (1 Bft) 95,74 %
19.07.2021 03:22 17,0 C 16,1 C 15,0 C 89 % 1022,0 hPa 0,0 l/m 0 min 0 min 0 W/m 3,2 km/h (1 Bft) 95,74 %
19.07.2021 03:24 16,9 C 16,1 C 15,0 C 89 % 1022,0 hPa 0,0 l/m 0 min 0 min 0 W/m 0,0 km/h (0 Bft) 95,65 %
19.07.2021 03:26 16,9 C 16,1 C 15,0 C 89 % 1022,0 hPa 0,0 l/m 0 min 0 min 0 W/m 0,0 km/h (0 Bft) 95,74 %
19.07.2021 03:28 16,9 C 16,1 C 15,0 C 89 % 1021,9 hPa 0,0 l/m 0 min 0 min 0 W/m 3,2 km/h (1 Bft) 95,74 %
19.07.2021 03:30 16,9 C 16,1 C 15,0 C 89 % 1021,9 hPa 0,0 l/m 0 min 0 min 0 W/m 0,0 km/h (0 Bft) 100,00 %
19.07.2021 03:32 16,8 C 15,6 C 15,0 C 89 % 1021,9 hPa 0,0 l/m 0 min 0 min 0 W/m 0,0 km/h (0 Bft) 100,00 %
19.07.2021 03:34 16,8 C 15,6 C 15,0 C 89 % 1021,8 hPa 0,0 l/m 0 min 0 min 0 W/m 0,0 km/h (0 Bft) 100,00 %
19.07.2021 03:36 16,8 C 15,6 C 14,5 C 89 % 1021,8 hPa 0,0 l/m 0 min 0 min 0 W/m 0,0 km/h (0 Bft) 100,00 %
19.07.2021 03:38 16,8 C 15,6 C 14,5 C 89 % 1021,8 hPa 0,0 l/m 0 min 0 min 0 W/m 3,2 km/h (1 Bft) 100,00 %
19.07.2021 03:40 16,8 C 15,6 C 14,5 C 90 % 1021,8 hPa 0,0 l/m 0 min 0 min 0 W/m 0,0 km/h (0 Bft) 100,00 %
19.07.2021 03:42 16,8 C 15,6 C 14,5 C 90 % 1021,8 hPa 0,0 l/m 0 min 0 min 0 W/m 0,0 km/h (0 Bft) 100,00 %
19.07.2021 03:44 16,8 C 15,6 C 14,5 C 90 % 1021,8 hPa 0,0 l/m 0 min 0 min 0 W/m 0,0 km/h (0 Bft) 100,00 %
19.07.2021 03:46 16,8 C 15,6 C 14,5 C 90 % 1021,8 hPa 0,0 l/m 0 min 0 min 0 W/m 0,0 km/h (0 Bft) 100,00 %
19.07.2021 03:48 16,8 C 15,6 C 14,5 C 90 % 1021,8 hPa 0,0 l/m 0 min 0 min 0 W/m 3,2 km/h (1 Bft) 100,00 %
19.07.2021 03:50 16,7 C 15,6 C 14,5 C 90 % 1021,8 hPa 0,0 l/m 0 min 0 min 0 W/m 0,0 km/h (0 Bft) 100,00 %
19.07.2021 03:52 16,8 C 15,6 C 14,5 C 90 % 1021,8 hPa 0,0 l/m 0 min 0 min 0 W/m 0,0 km/h (0 Bft) 100,00 %
19.07.2021 03:54 16,7 C 15,6 C 14,5 C 90 % 1021,7 hPa 0,0 l/m 0 min 0 min 0 W/m 0,0 km/h (0 Bft) 100,00 %
19.07.2021 03:56 16,7 C 15,6 C 14,5 C 90 % 1021,7 hPa 0,0 l/m 0 min 0 min 0 W/m 0,0 km/h (0 Bft) 100,00 %
19.07.2021 03:58 16,7 C 15,6 C 14,5 C 90 % 1021,7 hPa 0,0 l/m 0 min 0 min 0 W/m 0,0 km/h (0 Bft) 100,00 %
19.07.2021 04:00 16,7 C 15,6 C 14,5 C 90 % 1021,7 hPa 0,0 l/m 0 min 0 min 0 W/m 0,0 km/h (0 Bft) 100,00 %
19.07.2021 04:05 16,6 C 15,6 C 14,5 C 90 % 1021,8 hPa 0,0 l/m 0 min 0 min 0 W/m 0,0 km/h (0 Bft) 100,00 %
19.07.2021 04:06 16,6 C 15,6 C 14,5 C 90 % 1021,8 hPa 0,0 l/m 0 min 0 min 0 W/m 0,0 km/h (0 Bft) 100,00 %
19.07.2021 04:08 16,5 C 15,6 C 14,5 C 90 % 1021,9 hPa 0,0 l/m 0 min 0 min 0 W/m 0,0 km/h (0 Bft) 100,00 %
19.07.2021 04:10 16,5 C 15,0 C 14,5 C 90 % 1021,8 hPa 0,0 l/m 0 min 0 min 0 W/m 0,0 km/h (0 Bft) 97,83 %
19.07.2021 04:12 16,4 C 15,6 C 14,5 C 90 % 1021,9 hPa 0,0 l/m 0 min 0 min 0 W/m 0,0 km/h (0 Bft) 100,00 %
19.07.2021 04:14 16,4 C 15,6 C 14,5 C 90 % 1021,9 hPa 0,0 l/m 0 min 0 min 0 W/m 0,0 km/h (0 Bft) 97,87 %
19.07.2021 04:16 16,4 C 15,0 C 13,9 C 90 % 1021,9 hPa 0,0 l/m 0 min 0 min 0 W/m 0,0 km/h (0 Bft) 100,00 %
19.07.2021 04:18 16,3 C 15,0 C 13,9 C 90 % 1021,9 hPa 0,0 l/m 0 min 0 min 0 W/m 6,4 km/h (2 Bft) 97,87 %
19.07.2021 04:20 16,3 C 15,0 C 13,9 C 90 % 1022,0 hPa 0,0 l/m 0 min 0 min 0 W/m 0,0 km/h (0 Bft) 95,74 %
19.07.2021 04:22 16,2 C 15,0 C 13,9 C 90 % 1022,0 hPa 0,0 l/m 0 min 0 min 0 W/m 3,2 km/h (1 Bft) 97,83 %
19.07.2021 04:24 16,2 C 15,0 C 13,9 C 90 % 1022,0 hPa 0,0 l/m 0 min 0 min 0 W/m 0,0 km/h (0 Bft) 97,87 %
19.07.2021 04:26 16,1 C 15,0 C 13,9 C 91 % 1022,0 hPa 0,0 l/m 0 min 0 min 0 W/m 0,0 km/h (0 Bft) 97,87 %
19.07.2021 04:28 16,1 C 15,0 C 13,9 C 91 % 1022,0 hPa 0,0 l/m 0 min 0 min 0 W/m 0,0 km/h (0 Bft) 97,87 %
19.07.2021 04:30 16,1 C 15,0 C 13,9 C 91 % 1022,0 hPa 0,0 l/m 0 min 0 min 0 W/m 0,0 km/h (0 Bft) 95,74 %
19.07.2021 04:32 16,1 C 15,0 C 13,9 C 91 % 1022,0 hPa 0,0 l/m 0 min 0 min 0 W/m 0,0 km/h (0 Bft) 95,74 %
19.07.2021 04:34 16,0 C 15,0 C 13,9 C 91 % 1022,0 hPa 0,0 l/m 0 min 0 min 0 W/m 3,2 km/h (1 Bft) 97,83 %
19.07.2021 04:36 16,0 C 15,0 C 13,9 C 91 % 1021,9 hPa 0,0 l/m 0 min 0 min 0 W/m 3,2 km/h (1 Bft) 97,87 %
19.07.2021 04:38 16,0 C 15,0 C 13,9 C 91 % 1021,9 hPa 0,0 l/m 0 min 0 min 0 W/m 3,2 km/h (1 Bft) 97,87 %
19.07.2021 04:40 15,9 C 15,0 C 13,9 C 91 % 1021,8 hPa 0,0 l/m 0 min 0 min 0 W/m 3,2 km/h (1 Bft) 97,87 %
19.07.2021 04:42 15,9 C 15,0 C 13,9 C 91 % 1021,8 hPa 0,0 l/m 0 min 0 min 0 W/m 0,0 km/h (0 Bft) 97,87 %
19.07.2021 04:44 15,9 C 14,4 C 13,9 C 91 % 1021,8 hPa 0,0 l/m 0 min 0 min 0 W/m 0,0 km/h (0 Bft) 97,87 %
19.07.2021 04:46 15,9 C 14,4 C 13,9 C 91 % 1021,9 hPa 0,0 l/m 0 min 0 min 0 W/m 0,0 km/h (0 Bft) 97,83 %
19.07.2021 04:48 15,9 C 14,4 C 13,9 C 91 % 1021,8 hPa 0,0 l/m 0 min 0 min 0 W/m 0,0 km/h (0 Bft) 97,87 %
19.07.2021 04:50 15,8 C 14,4 C 13,9 C 91 % 1021,8 hPa 0,0 l/m 0 min 0 min 0 W/m 3,2 km/h (1 Bft) 95,74 %
19.07.2021 04:52 15,8 C 14,4 C 13,9 C 91 % 1021,8 hPa 0,0 l/m 0 min 0 min 0 W/m 0,0 km/h (0 Bft) 97,87 %
19.07.2021 04:54 15,8 C 14,4 C 13,9 C 91 % 1021,8 hPa 0,0 l/m 0 min 0 min 0 W/m 0,0 km/h (0 Bft) 97,87 %
19.07.2021 04:56 15,7 C 14,4 C 13,9 C 91 % 1021,9 hPa 0,0 l/m 0 min 0 min 0 W/m 0,0 km/h (0 Bft) 97,87 %
19.07.2021 04:58 15,7 C 14,4 C 13,9 C 91 % 1021,8 hPa 0,0 l/m 0 min 0 min 0 W/m 0,0 km/h (0 Bft) 97,83 %
19.07.2021 05:00 15,6 C 14,4 C 13,9 C 91 % 1021,8 hPa 0,0 l/m 0 min 0 min 0 W/m 0,0 km/h (0 Bft) 95,74 %
19.07.2021 05:02 15,6 C 14,4 C 13,9 C 91 % 1021,8 hPa 0,0 l/m 0 min 0 min 0 W/m 0,0 km/h (0 Bft) 93,62 %
19.07.2021 05:04 15,6 C 14,4 C 13,4 C 91 % 1021,8 hPa 0,0 l/m 0 min 0 min 0 W/m 3,2 km/h (1 Bft) 93,62 %
19.07.2021 05:06 15,5 C 14,4 C 13,4 C 91 % 1021,8 hPa 0,0 l/m 0 min 0 min 0 W/m 3,2 km/h (1 Bft) 95,74 %
19.07.2021 05:08 15,5 C 14,4 C 13,4 C 91 % 1021,8 hPa 0,0 l/m 0 min 0 min 0 W/m 3,2 km/h (1 Bft) 95,65 %
19.07.2021 05:10 15,5 C 14,4 C 13,4 C 91 % 1021,8 hPa 0,0 l/m 0 min 0 min 0 W/m 0,0 km/h (0 Bft) 95,74 %
19.07.2021 05:12 15,5 C 14,4 C 13,4 C 92 % 1021,8 hPa 0,0 l/m 0 min 0 min 0 W/m 0,0 km/h (0 Bft) 95,74 %
19.07.2021 05:14 15,5 C 14,4 C 13,9 C 92 % 1021,8 hPa 0,0 l/m 0 min 0 min 0 W/m 0,0 km/h (0 Bft) 95,74 %
19.07.2021 05:16 15,5 C 14,4 C 13,4 C 92 % 1021,8 hPa 0,0 l/m 0 min 0 min 0 W/m 3,2 km/h (1 Bft) 93,62 %
19.07.2021 05:18 15,4 C 14,4 C 13,4 C 92 % 1021,8 hPa 0,0 l/m 0 min 0 min 0 W/m 0,0 km/h (0 Bft) 95,74 %
19.07.2021 05:20 15,4 C 14,4 C 13,4 C 92 % 1021,9 hPa 0,0 l/m 0 min 0 min 0 W/m 0,0 km/h (0 Bft) 95,74 %
19.07.2021 05:22 15,4 C 14,4 C 13,4 C 92 % 1021,9 hPa 0,0 l/m 0 min 0 min 0 W/m 3,2 km/h (1 Bft) 93,48 %
19.07.2021 05:24 15,4 C 14,4 C 13,4 C 92 % 1021,9 hPa 0,0 l/m 0 min 0 min 0 W/m 3,2 km/h (1 Bft) 97,87 %
19.07.2021 05:26 15,3 C 14,4 C 13,4 C 92 % 1021,9 hPa 0,0 l/m 0 min 0 min 0 W/m 3,2 km/h (1 Bft) 95,74 %
19.07.2021 05:28 15,3 C 14,4 C 13,4 C 92 % 1021,8 hPa 0,0 l/m 0 min 0 min 0 W/m 3,2 km/h (1 Bft) 95,74 %
19.07.2021 05:30 15,3 C 14,4 C 13,4 C 92 % 1021,9 hPa 0,0 l/m 0 min 0 min 0 W/m 3,2 km/h (1 Bft) 95,74 %
19.07.2021 05:32 15,2 C 14,4 C 13,4 C 92 % 1021,9 hPa 0,0 l/m 0 min 0 min 0 W/m 3,2 km/h (1 Bft) 93,48 %
19.07.2021 05:34 15,1 C 14,4 C 13,4 C 92 % 1021,9 hPa 0,0 l/m 0 min 0 min 0 W/m 3,2 km/h (1 Bft) 95,74 %
19.07.2021 05:36 15,1 C 14,4 C 13,4 C 92 % 1021,9 hPa 0,0 l/m 0 min 0 min 0 W/m 3,2 km/h (1 Bft) 95,74 %
19.07.2021 05:38 15,0 C 13,9 C 13,4 C 92 % 1021,9 hPa 0,0 l/m 0 min 0 min 0 W/m 3,2 km/h (1 Bft) 96,23 %
19.07.2021 05:40 15,0 C 13,9 C 13,4 C 92 % 1021,9 hPa 0,0 l/m 0 min 0 min 0 W/m 0,0 km/h (0 Bft) 91,43 %
19.07.2021 05:42 15,0 C 13,9 C 13,4 C 92 % 1021,9 hPa 0,0 l/m 0 min 0 min 0 W/m 3,2 km/h (1 Bft) 97,87 %
19.07.2021 05:44 15,0 C 14,4 C 13,4 C 92 % 1021,8 hPa 0,0 l/m 0 min 0 min 0 W/m 0,0 km/h (0 Bft) 97,87 %
19.07.2021 05:46 15,0 C 14,4 C 13,4 C 92 % 1021,8 hPa 0,0 l/m 0 min 0 min 3 W/m 0,0 km/h (0 Bft) 97,87 %
19.07.2021 05:48 15,0 C 14,4 C 13,4 C 92 % 1021,8 hPa 0,0 l/m 0 min 0 min 5 W/m 0,0 km/h (0 Bft) 100,00 %
19.07.2021 05:50 15,0 C 14,4 C 13,4 C 93 % 1021,8 hPa 0,0 l/m 0 min 0 min 5 W/m 0,0 km/h (0 Bft) 97,87 %
19.07.2021 05:52 15,0 C 14,4 C 13,9 C 93 % 1021,8 hPa 0,0 l/m 0 min 0 min 6 W/m 0,0 km/h (0 Bft) 93,62 %
19.07.2021 05:54 15,0 C 14,4 C 13,9 C 93 % 1021,8 hPa 0,0 l/m 0 min 0 min 7 W/m 0,0 km/h (0 Bft) 97,87 %
19.07.2021 05:56 15,0 C 14,4 C 13,9 C 93 % 1021,9 hPa 0,0 l/m 0 min 0 min 7 W/m 0,0 km/h (0 Bft) 97,87 %
19.07.2021 05:58 15,1 C 14,4 C 13,9 C 93 % 1021,8 hPa 0,0 l/m 0 min 0 min 9 W/m 3,2 km/h (1 Bft) 95,74 %
19.07.2021 06:00 15,1 C 14,4 C 13,9 C 93 % 1021,9 hPa 0,0 l/m 0 min 0 min 9 W/m 0,0 km/h (0 Bft) 95,65 %
19.07.2021 06:02 15,1 C 14,4 C 13,9 C 93 % 1022,0 hPa 0,0 l/m 0 min 0 min 11 W/m 0,0 km/h (0 Bft) 93,62 %
19.07.2021 06:04 15,1 C 14,4 C 13,9 C 93 % 1022,0 hPa 0,0 l/m 0 min 0 min 11 W/m 0,0 km/h (0 Bft) 97,62 %
19.07.2021 06:08 15,1 C 14,4 C 13,9 C 93 % 1022,1 hPa 0,0 l/m 0 min 0 min 12 W/m 0,0 km/h (0 Bft) 94,68 %
19.07.2021 06:10 15,1 C 14,4 C 13,9 C 93 % 1022,1 hPa 0,0 l/m 0 min 0 min 12 W/m 0,0 km/h (0 Bft) 95,74 %
19.07.2021 06:12 15,1 C 14,4 C 13,9 C 93 % 1022,1 hPa 0,0 l/m 0 min 0 min 14 W/m 6,4 km/h (2 Bft) 93,48 %
19.07.2021 06:14 15,1 C 14,4 C 13,9 C 93 % 1022,1 hPa 0,0 l/m 0 min 0 min 14 W/m 3,2 km/h (1 Bft) 95,74 %
19.07.2021 06:16 15,1 C 14,4 C 13,9 C 93 % 1022,1 hPa 0,0 l/m 0 min 0 min 16 W/m 3,2 km/h (1 Bft) 95,74 %
19.07.2021 06:18 15,1 C 14,4 C 13,9 C 93 % 1022,0 hPa 0,0 l/m 0 min 0 min 16 W/m 3,2 km/h (1 Bft) 95,74 %
19.07.2021 06:20 15,1 C 14,4 C 13,9 C 93 % 1022,1 hPa 0,0 l/m 0 min 0 min 18 W/m 3,2 km/h (1 Bft) 95,74 %
19.07.2021 06:22 15,1 C 14,4 C 13,9 C 93 % 1022,1 hPa 0,0 l/m 0 min 0 min 18 W/m 3,2 km/h (1 Bft) 93,62 %
19.07.2021 06:24 15,1 C 14,4 C 13,9 C 93 % 1022,1 hPa 0,0 l/m 0 min 0 min 19 W/m 3,2 km/h (1 Bft) 93,48 %
19.07.2021 06:26 15,1 C 14,4 C 13,9 C 93 % 1022,1 hPa 0,0 l/m 0 min 0 min 19 W/m 3,2 km/h (1 Bft) 95,74 %
19.07.2021 06:28 15,1 C 14,4 C 14,5 C 93 % 1022,1 hPa 0,0 l/m 0 min 0 min 19 W/m 3,2 km/h (1 Bft) 93,62 %
19.07.2021 06:30 15,1 C 14,4 C 14,5 C 93 % 1022,0 hPa 0,0 l/m 0 min 0 min 21 W/m 3,2 km/h (1 Bft) 95,74 %
19.07.2021 06:32 15,2 C 14,4 C 14,5 C 93 % 1022,1 hPa 0,0 l/m 0 min 0 min 21 W/m 0,0 km/h (0 Bft) 95,74 %
19.07.2021 06:34 15,1 C 15,0 C 14,5 C 93 % 1022,1 hPa 0,0 l/m 0 min 0 min 23 W/m 0,0 km/h (0 Bft) 98,25 %
19.07.2021 06:36 15,2 C 15,0 C 14,5 C 94 % 1022,1 hPa 0,0 l/m 0 min 0 min 23 W/m 3,2 km/h (1 Bft) 97,87 %
19.07.2021 06:38 15,2 C 15,0 C 14,5 C 94 % 1022,2 hPa 0,0 l/m 0 min 0 min 24 W/m 3,2 km/h (1 Bft) 95,74 %
19.07.2021 06:40 15,2 C 15,0 C 14,5 C 94 % 1022,1 hPa 0,0 l/m 0 min 0 min 25 W/m 6,4 km/h (2 Bft) 97,87 %
19.07.2021 06:42 15,3 C 15,0 C 14,5 C 94 % 1022,2 hPa 0,0 l/m 0 min 0 min 26 W/m 3,2 km/h (1 Bft) 97,87 %
19.07.2021 06:44 15,3 C 15,0 C 14,5 C 94 % 1022,1 hPa 0,0 l/m 0 min 0 min 26 W/m 0,0 km/h (0 Bft) 95,74 %
19.07.2021 06:46 15,3 C 15,0 C 14,5 C 94 % 1022,2 hPa 0,0 l/m 0 min 0 min 27 W/m 3,2 km/h (1 Bft) 95,65 %
19.07.2021 06:48 15,3 C 15,0 C 14,5 C 94 % 1022,2 hPa 0,0 l/m 0 min 0 min 28 W/m 0,0 km/h (0 Bft) 95,74 %
19.07.2021 06:50 15,3 C 15,0 C 14,5 C 94 % 1022,2 hPa 0,0 l/m 0 min 0 min 30 W/m 0,0 km/h (0 Bft) 100,00 %
19.07.2021 06:52 15,3 C 15,0 C 14,5 C 94 % 1022,2 hPa 0,0 l/m 0 min 0 min 30 W/m 6,4 km/h (2 Bft) 100,00 %
19.07.2021 06:54 15,4 C 15,0 C 14,5 C 94 % 1022,2 hPa 0,0 l/m 0 min 0 min 31 W/m 6,4 km/h (2 Bft) 100,00 %
19.07.2021 06:56 15,4 C 15,0 C 14,5 C 94 % 1022,2 hPa 0,0 l/m 0 min 0 min 32 W/m 3,2 km/h (1 Bft) 100,00 %
19.07.2021 06:58 15,4 C 15,0 C 14,5 C 94 % 1022,2 hPa 0,0 l/m 0 min 0 min 32 W/m 3,2 km/h (1 Bft) 100,00 %
19.07.2021 07:00 15,4 C 15,0 C 14,5 C 94 % 1022,2 hPa 0,0 l/m 0 min 0 min 33 W/m 3,2 km/h (1 Bft) 100,00 %
19.07.2021 07:02 15,4 C 15,0 C 14,5 C 94 % 1022,4 hPa 0,0 l/m 0 min 0 min 33 W/m 6,4 km/h (2 Bft) 100,00 %
19.07.2021 07:04 15,4 C 15,6 C 14,5 C 94 % 1022,3 hPa 0,0 l/m 0 min 0 min 35 W/m 6,4 km/h (2 Bft) 97,87 %
19.07.2021 07:06 15,4 C 15,6 C 15,0 C 94 % 1022,4 hPa 0,0 l/m 0 min 0 min 36 W/m 3,2 km/h (1 Bft) 100,00 %
19.07.2021 07:08 15,5 C 15,6 C 15,0 C 94 % 1022,3 hPa 0,0 l/m 0 min 0 min 37 W/m 6,4 km/h (2 Bft) 97,87 %
19.07.2021 07:10 15,5 C 15,6 C 15,0 C 93 % 1022,3 hPa 0,0 l/m 0 min 0 min 38 W/m 6,4 km/h (2 Bft) 100,00 %
19.07.2021 07:12 15,5 C 15,6 C 15,0 C 93 % 1022,3 hPa 0,0 l/m 0 min 0 min 39 W/m 3,2 km/h (1 Bft) 100,00 %
19.07.2021 07:14 15,5 C 15,6 C 15,0 C 93 % 1022,3 hPa 0,0 l/m 0 min 0 min 40 W/m 9,7 km/h (2 Bft) 100,00 %
19.07.2021 07:16 15,6 C 15,6 C 15,0 C 93 % 1022,4 hPa 0,0 l/m 0 min 0 min 41 W/m 3,2 km/h (1 Bft) 97,87 %
19.07.2021 07:18 15,6 C 15,6 C 15,0 C 93 % 1022,5 hPa 0,0 l/m 0 min 0 min 43 W/m 3,2 km/h (1 Bft) 100,00 %
19.07.2021 07:20 15,6 C 15,6 C 15,0 C 93 % 1022,4 hPa 0,0 l/m 0 min 0 min 45 W/m 6,4 km/h (2 Bft) 100,00 %
19.07.2021 07:22 15,7 C 15,6 C 15,0 C 93 % 1022,5 hPa 0,0 l/m 0 min 0 min 47 W/m 6,4 km/h (2 Bft) 97,87 %
19.07.2021 07:24 15,7 C 15,6 C 15,0 C 93 % 1022,4 hPa 0,0 l/m 0 min 0 min 52 W/m 9,7 km/h (2 Bft) 97,87 %
19.07.2021 07:26 15,8 C 16,1 C 15,0 C 93 % 1022,5 hPa 0,0 l/m 0 min 0 min 56 W/m 3,2 km/h (1 Bft) 97,83 %
19.07.2021 07:28 15,8 C 16,1 C 15,0 C 93 % 1022,5 hPa 0,0 l/m 0 min 0 min 56 W/m 3,2 km/h (1 Bft) 97,87 %
19.07.2021 07:30 15,8 C 16,1 C 15,0 C 93 % 1022,5 hPa 0,0 l/m 0 min 0 min 56 W/m 9,7 km/h (2 Bft) 97,87 %
19.07.2021 07:32 15,9 C 16,1 C 15,0 C 93 % 1022,5 hPa 0,0 l/m 0 min 0 min 57 W/m 9,7 km/h (2 Bft) 95,74 %
19.07.2021 07:34 15,9 C 16,1 C 15,6 C 93 % 1022,6 hPa 0,0 l/m 0 min 0 min 62 W/m 6,4 km/h (2 Bft) 95,74 %
19.07.2021 07:36 15,9 C 16,1 C 15,6 C 93 % 1022,6 hPa 0,0 l/m 0 min 0 min 68 W/m 12,9 km/h (3 Bft) 97,87 %
19.07.2021 07:38 15,9 C 16,1 C 15,6 C 93 % 1022,6 hPa 0,0 l/m 0 min 0 min 73 W/m 3,2 km/h (1 Bft) 97,83 %
19.07.2021 07:40 16,0 C 16,1 C 15,6 C 92 % 1022,5 hPa 0,0 l/m 0 min 0 min 80 W/m 6,4 km/h (2 Bft) 97,87 %
19.07.2021 07:42 16,0 C 16,1 C 15,6 C 92 % 1022,5 hPa 0,0 l/m 0 min 0 min 82 W/m 9,7 km/h (2 Bft) 95,74 %
19.07.2021 07:44 16,0 C 16,1 C 15,6 C 92 % 1022,6 hPa 0,0 l/m 0 min 0 min 91 W/m 3,2 km/h (1 Bft) 97,87 %
19.07.2021 07:46 16,1 C 16,1 C 15,6 C 92 % 1022,6 hPa 0,0 l/m 0 min 0 min 103 W/m 9,7 km/h (2 Bft) 97,87 %
19.07.2021 07:48 16,1 C 16,1 C 15,6 C 92 % 1022,5 hPa 0,0 l/m 0 min 0 min 89 W/m 6,4 km/h (2 Bft) 95,74 %
19.07.2021 07:50 16,1 C 16,7 C 15,6 C 92 % 1022,5 hPa 0,0 l/m 0 min 0 min 77 W/m 3,2 km/h (1 Bft) 95,65 %
19.07.2021 07:52 16,2 C 16,7 C 15,6 C 92 % 1022,6 hPa 0,0 l/m 0 min 0 min 83 W/m 3,2 km/h (1 Bft) 97,87 %
19.07.2021 07:54 16,3 C 16,7 C 15,6 C 92 % 1022,6 hPa 0,0 l/m 0 min 0 min 86 W/m 3,2 km/h (1 Bft) 97,87 %
19.07.2021 07:56 16,3 C 16,7 C 15,6 C 92 % 1022,6 hPa 0,0 l/m 0 min 0 min 74 W/m 9,7 km/h (2 Bft) 97,87 %
19.07.2021 07:58 16,3 C 16,7 C 15,6 C 92 % 1022,6 hPa 0,0 l/m 0 min 0 min 69 W/m 6,4 km/h (2 Bft) 93,62 %
19.07.2021 08:00 16,3 C 16,7 C 15,6 C 92 % 1022,5 hPa 0,0 l/m 0 min 0 min 75 W/m 6,4 km/h (2 Bft) 95,74 %
19.07.2021 08:02 16,3 C 16,7 C 15,6 C 92 % 1022,6 hPa 0,0 l/m 0 min 0 min 143 W/m 6,4 km/h (2 Bft) 97,83 %
19.07.2021 08:04 16,4 C 16,7 C 15,6 C 91 % 1022,5 hPa 0,0 l/m 2 min 0 min 197 W/m 3,2 km/h (1 Bft) 100,00 %
19.07.2021 08:06 16,4 C 16,7 C 15,6 C 91 % 1022,5 hPa 0,0 l/m 2 min 0 min 247 W/m 6,4 km/h (2 Bft) 97,87 %
19.07.2021 08:08 16,4 C 16,7 C 15,6 C 91 % 1022,5 hPa 0,0 l/m 2 min 0 min 259 W/m 6,4 km/h (2 Bft) 100,00 %
19.07.2021 08:10 16,5 C 16,7 C 16,1 C 91 % 1022,6 hPa 0,0 l/m 2 min 0 min 265 W/m 9,7 km/h (2 Bft) 97,87 %
19.07.2021 08:12 16,5 C 16,7 C 16,1 C 91 % 1022,6 hPa 0,0 l/m 2 min 0 min 270 W/m 6,4 km/h (2 Bft) 100,00 %
19.07.2021 08:14 16,6 C 17,2 C 16,1 C 91 % 1022,6 hPa 0,0 l/m 2 min 0 min 278 W/m 6,4 km/h (2 Bft) 100,00 %
19.07.2021 08:16 16,6 C 17,2 C 16,1 C 91 % 1022,6 hPa 0,0 l/m 2 min 0 min 283 W/m 6,4 km/h (2 Bft) 100,00 %
19.07.2021 08:18 16,8 C 17,8 C 16,1 C 91 % 1022,6 hPa 0,0 l/m 2 min 0 min 285 W/m 9,7 km/h (2 Bft) 100,00 %
19.07.2021 08:20 16,8 C 18,3 C 16,1 C 91 % 1022,6 hPa 0,0 l/m 2 min 0 min 280 W/m 9,7 km/h (2 Bft) 100,00 %
19.07.2021 08:22 16,9 C 18,3 C 16,1 C 91 % 1022,6 hPa 0,0 l/m 0 min 0 min 177 W/m 12,9 km/h (3 Bft) 100,00 %
19.07.2021 08:24 16,9 C 17,8 C 16,1 C 90 % 1022,7 hPa 0,0 l/m 2 min 0 min 209 W/m 3,2 km/h (1 Bft) 100,00 %
19.07.2021 08:26 17,0 C 18,3 C 16,1 C 90 % 1022,6 hPa 0,0 l/m 0 min 0 min 176 W/m 6,4 km/h (2 Bft) 100,00 %
19.07.2021 08:28 17,1 C 18,3 C 16,7 C 90 % 1022,6 hPa 0,0 l/m 2 min 0 min 193 W/m 6,4 km/h (2 Bft) 100,00 %
19.07.2021 08:30 17,1 C 18,3 C 16,7 C 90 % 1022,6 hPa 0,0 l/m 2 min 0 min 208 W/m 6,4 km/h (2 Bft) 100,00 %
19.07.2021 08:32 17,2 C 18,3 C 16,7 C 89 % 1022,6 hPa 0,0 l/m 0 min 0 min 159 W/m 3,2 km/h (1 Bft) 100,00 %
19.07.2021 08:34 17,3 C 18,3 C 16,7 C 89 % 1022,7 hPa 0,0 l/m 0 min 0 min 130 W/m 9,7 km/h (2 Bft) 100,00 %
19.07.2021 08:36 17,3 C 18,3 C 16,7 C 89 % 1022,7 hPa 0,0 l/m 0 min 0 min 113 W/m 6,4 km/h (2 Bft) 100,00 %
19.07.2021 08:38 17,3 C 17,8 C 16,7 C 88 % 1022,7 hPa 0,0 l/m 0 min 0 min 121 W/m 6,4 km/h (2 Bft) 100,00 %
19.07.2021 08:40 17,3 C 17,8 C 16,7 C 88 % 1022,7 hPa 0,0 l/m 0 min 0 min 137 W/m 6,4 km/h (2 Bft) 97,87 %
19.07.2021 08:42 17,4 C 17,8 C 16,7 C 88 % 1022,7 hPa 0,0 l/m 0 min 0 min 147 W/m 3,2 km/h (1 Bft) 100,00 %
19.07.2021 08:44 17,4 C 17,8 C 16,7 C 88 % 1022,7 hPa 0,0 l/m 0 min 0 min 158 W/m 12,9 km/h (3 Bft) 100,00 %
19.07.2021 08:46 17,4 C 17,8 C 16,7 C 88 % 1022,7 hPa 0,0 l/m 0 min 0 min 183 W/m 6,4 km/h (2 Bft) 100,00 %
19.07.2021 08:47 17,4 C 17,8 C 16,7 C 88 % 1022,7 hPa 0,0 l/m 0 min 0 min 180 W/m 6,4 km/h (2 Bft) 100,00 %
19.07.2021 08:50 17,5 C 17,8 C 16,7 C 87 % 1022,7 hPa 0,0 l/m 0 min 0 min 182 W/m 9,7 km/h (2 Bft) 100,00 %
19.07.2021 08:52 17,5 C 17,8 C 16,7 C 87 % 1022,8 hPa 0,0 l/m 0 min 0 min 176 W/m 9,7 km/h (2 Bft) 100,00 %
19.07.2021 08:54 17,5 C 18,3 C 17,3 C 87 % 1022,8 hPa 0,0 l/m 0 min 0 min 161 W/m 3,2 km/h (1 Bft) 97,87 %
19.07.2021 08:56 17,6 C 18,3 C 17,3 C 87 % 1022,8 hPa 0,0 l/m 0 min 0 min 164 W/m 6,4 km/h (2 Bft) 95,74 %
19.07.2021 08:58 17,6 C 18,3 C 17,3 C 87 % 1022,8 hPa 0,0 l/m 0 min 0 min 170 W/m 6,4 km/h (2 Bft) 97,87 %
19.07.2021 09:00 17,6 C 18,3 C 17,3 C 87 % 1022,8 hPa 0,0 l/m 0 min 0 min 184 W/m 9,7 km/h (2 Bft) 97,83 %
19.07.2021 09:02 17,7 C 18,3 C 17,3 C 86 % 1022,7 hPa 0,0 l/m 0 min 0 min 202 W/m 9,7 km/h (2 Bft) 93,62 %
19.07.2021 09:04 17,8 C 18,3 C 17,3 C 86 % 1022,8 hPa 0,0 l/m 0 min 0 min 215 W/m 6,4 km/h (2 Bft) 97,87 %
19.07.2021 09:06 17,8 C 18,9 C 17,3 C 86 % 1022,8 hPa 0,0 l/m 0 min 0 min 216 W/m 6,4 km/h (2 Bft) 97,87 %
19.07.2021 09:08 17,9 C 18,9 C 17,3 C 85 % 1022,8 hPa 0,0 l/m 0 min 0 min 214 W/m 6,4 km/h (2 Bft) 97,87 %
19.07.2021 09:10 17,9 C 18,9 C 17,3 C 85 % 1022,7 hPa 0,0 l/m 0 min 0 min 209 W/m 12,9 km/h (3 Bft) 97,87 %
19.07.2021 09:12 18,0 C 18,9 C 17,8 C 85 % 1022,7 hPa 0,0 l/m 0 min 0 min 214 W/m 6,4 km/h (2 Bft) 97,83 %
19.07.2021 09:14 18,0 C 18,9 C 17,8 C 85 % 1022,7 hPa 0,0 l/m 0 min 0 min 226 W/m 9,7 km/h (2 Bft) 95,74 %
19.07.2021 09:16 18,0 C 18,9 C 17,8 C 84 % 1022,7 hPa 0,0 l/m 0 min 0 min 243 W/m 6,4 km/h (2 Bft) 97,87 %
19.07.2021 09:18 18,1 C 19,4 C 17,8 C 84 % 1022,7 hPa 0,0 l/m 0 min 0 min 240 W/m 6,4 km/h (2 Bft) 97,87 %
19.07.2021 09:20 18,1 C 18,9 C 17,8 C 83 % 1022,7 hPa 0,0 l/m 0 min 0 min 231 W/m 12,9 km/h (3 Bft) 97,87 %
19.07.2021 09:22 18,2 C 18,9 C 17,8 C 83 % 1022,7 hPa 0,0 l/m 0 min 0 min 236 W/m 9,7 km/h (2 Bft) 93,62 %
19.07.2021 09:24 18,3 C 18,9 C 17,8 C 83 % 1022,7 hPa 0,0 l/m 0 min 0 min 249 W/m 12,9 km/h (3 Bft) 97,87 %
19.07.2021 09:26 18,3 C 18,9 C 17,8 C 83 % 1022,7 hPa 0,0 l/m 0 min 0 min 248 W/m 9,7 km/h (2 Bft) 95,65 %
19.07.2021 09:28 18,3 C 18,9 C 17,8 C 83 % 1022,7 hPa 0,0 l/m 0 min 0 min 247 W/m 9,7 km/h (2 Bft) 97,87 %
19.07.2021 09:30 18,4 C 18,9 C 17,8 C 82 % 1022,6 hPa 0,0 l/m 0 min 0 min 255 W/m 6,4 km/h (2 Bft) 97,87 %
19.07.2021 09:32 18,4 C 19,4 C 17,8 C 82 % 1022,7 hPa 0,0 l/m 0 min 0 min 259 W/m 6,4 km/h (2 Bft) 95,74 %
19.07.2021 09:34 18,5 C 19,4 C 17,8 C 82 % 1022,7 hPa 0,0 l/m 0 min 0 min 251 W/m 9,7 km/h (2 Bft) 97,87 %
19.07.2021 09:36 18,5 C 19,4 C 17,8 C 81 % 1022,7 hPa 0,0 l/m 0 min 0 min 240 W/m 6,4 km/h (2 Bft) 95,65 %
19.07.2021 09:38 18,6 C 19,4 C 17,8 C 82 % 1022,8 hPa 0,0 l/m 0 min 0 min 246 W/m 9,7 km/h (2 Bft) 97,87 %
19.07.2021 09:40 18,6 C 19,4 C 17,8 C 82 % 1022,7 hPa 0,0 l/m 0 min 0 min 252 W/m 6,4 km/h (2 Bft) 100,00 %
19.07.2021 09:42 18,7 C 19,4 C 17,8 C 81 % 1022,8 hPa 0,0 l/m 0 min 0 min 256 W/m 9,7 km/h (2 Bft) 100,00 %
19.07.2021 09:44 18,7 C 19,4 C 17,8 C 81 % 1022,8 hPa 0,0 l/m 0 min 0 min 255 W/m 16,1 km/h (3 Bft) 100,00 %
19.07.2021 09:46 18,8 C 19,4 C 17,8 C 81 % 1022,8 hPa 0,0 l/m 0 min 0 min 246 W/m 9,7 km/h (2 Bft) 100,00 %
19.07.2021 09:48 18,8 C 19,4 C 17,8 C 80 % 1022,8 hPa 0,0 l/m 0 min 0 min 236 W/m 6,4 km/h (2 Bft) 100,00 %
19.07.2021 09:50 18,8 C 19,4 C 17,8 C 80 % 1022,8 hPa 0,0 l/m 0 min 0 min 239 W/m 12,9 km/h (3 Bft) 100,00 %
19.07.2021 09:52 18,8 C 19,4 C 17,8 C 79 % 1022,8 hPa 0,0 l/m 0 min 0 min 263 W/m 6,4 km/h (2 Bft) 100,00 %
19.07.2021 09:54 18,8 C 19,4 C 17,8 C 80 % 1022,7 hPa 0,0 l/m 0 min 0 min 285 W/m 9,7 km/h (2 Bft) 95,74 %
19.07.2021 09:56 18,9 C 19,4 C 18,4 C 79 % 1022,7 hPa 0,0 l/m 2 min 0 min 295 W/m 12,9 km/h (3 Bft) 100,00 %
19.07.2021 09:58 18,9 C 19,4 C 18,4 C 80 % 1022,6 hPa 0,0 l/m 0 min 0 min 289 W/m 9,7 km/h (2 Bft) 100,00 %
19.07.2021 10:00 18,9 C 20,0 C 18,4 C 79 % 1022,7 hPa 0,0 l/m 2 min 0 min 310 W/m 6,4 km/h (2 Bft) 100,00 %
19.07.2021 10:02 19,0 C 20,0 C 18,4 C 79 % 1022,7 hPa 0,0 l/m 2 min 0 min 309 W/m 6,4 km/h (2 Bft) 100,00 %
19.07.2021 10:04 19,0 C 20,0 C 18,4 C 79 % 1022,7 hPa 0,0 l/m 0 min 0 min 292 W/m 12,9 km/h (3 Bft) 100,00 %
19.07.2021 10:06 19,1 C 20,6 C 18,4 C 80 % 1022,7 hPa 0,0 l/m 2 min 0 min 302 W/m 12,9 km/h (3 Bft) 100,00 %
19.07.2021 10:08 19,1 C 20,6 C 18,4 C 79 % 1022,7 hPa 0,0 l/m 0 min 0 min 296 W/m 12,9 km/h (3 Bft) 100,00 %
19.07.2021 10:10 19,1 C 20,0 C 18,4 C 79 % 1022,7 hPa 0,0 l/m 0 min 0 min 258 W/m 12,9 km/h (3 Bft) 97,87 %
19.07.2021 10:12 19,2 C 20,0 C 18,4 C 79 % 1022,7 hPa 0,0 l/m 0 min 0 min 241 W/m 9,7 km/h (2 Bft) 95,74 %
19.07.2021 10:14 19,2 C 20,0 C 17,8 C 78 % 1022,8 hPa 0,0 l/m 0 min 0 min 219 W/m 9,7 km/h (2 Bft) 95,74 %
19.07.2021 10:16 19,3 C 20,0 C 17,8 C 79 % 1022,7 hPa 0,0 l/m 0 min 0 min 205 W/m 6,4 km/h (2 Bft) 97,87 %
19.07.2021 10:18 19,3 C 20,0 C 17,8 C 79 % 1022,7 hPa 0,0 l/m 0 min 0 min 188 W/m 6,4 km/h (2 Bft) 97,83 %
19.07.2021 10:20 19,3 C 19,4 C 17,8 C 79 % 1022,7 hPa 0,0 l/m 0 min 0 min 175 W/m 6,4 km/h (2 Bft) 97,87 %
19.07.2021 10:22 19,2 C 19,4 C 17,8 C 78 % 1022,7 hPa 0,0 l/m 0 min 0 min 165 W/m 9,7 km/h (2 Bft) 95,74 %
19.07.2021 10:24 19,2 C 19,4 C 17,8 C 78 % 1022,7 hPa 0,0 l/m 0 min 0 min 162 W/m 12,9 km/h (3 Bft) 95,74 %
19.07.2021 10:26 19,2 C 18,9 C 17,3 C 77 % 1022,7 hPa 0,0 l/m 0 min 0 min 168 W/m 12,9 km/h (3 Bft) 97,87 %
19.07.2021 10:28 19,1 C 18,9 C 17,3 C 77 % 1022,6 hPa 0,0 l/m 0 min 0 min 180 W/m 12,9 km/h (3 Bft) 97,83 %
19.07.2021 10:30 19,1 C 18,9 C 17,3 C 77 % 1022,6 hPa 0,0 l/m 0 min 0 min 186 W/m 9,7 km/h (2 Bft) 95,74 %
19.07.2021 10:32 19,1 C 18,9 C 17,3 C 77 % 1022,7 hPa 0,0 l/m 0 min 0 min 184 W/m 6,4 km/h (2 Bft) 100,00 %
19.07.2021 10:34 19,1 C 18,9 C 17,3 C 78 % 1022,7 hPa 0,0 l/m 0 min 0 min 179 W/m 12,9 km/h (3 Bft) 97,87 %
19.07.2021 10:36 19,1 C 19,4 C 17,3 C 78 % 1022,7 hPa 0,0 l/m 0 min 0 min 172 W/m 9,7 km/h (2 Bft) 93,22 %
19.07.2021 10:38 19,1 C 18,9 C 17,3 C 78 % 1022,7 hPa 0,0 l/m 0 min 0 min 157 W/m 9,7 km/h (2 Bft) 97,14 %
19.07.2021 10:40 19,1 C 18,9 C 17,3 C 78 % 1022,7 hPa 0,0 l/m 0 min 0 min 153 W/m 9,7 km/h (2 Bft) 95,74 %
19.07.2021 10:42 19,1 C 18,9 C 17,3 C 78 % 1022,8 hPa 0,0 l/m 0 min 0 min 157 W/m 12,9 km/h (3 Bft) 95,74 %
19.07.2021 10:44 19,1 C 18,9 C 17,3 C 78 % 1022,8 hPa 0,0 l/m 0 min 0 min 161 W/m 6,4 km/h (2 Bft) 95,65 %
19.07.2021 10:46 19,0 C 18,9 C 17,3 C 78 % 1022,8 hPa 0,0 l/m 0 min 0 min 169 W/m 9,7 km/h (2 Bft) 93,62 %
19.07.2021 10:48 19,0 C 18,9 C 17,3 C 78 % 1022,7 hPa 0,0 l/m 0 min 0 min 183 W/m 6,4 km/h (2 Bft) 93,62 %
19.07.2021 10:50 19,0 C 18,9 C 17,3 C 78 % 1022,7 hPa 0,0 l/m 0 min 0 min 200 W/m 9,7 km/h (2 Bft) 93,62 %
19.07.2021 10:52 19,0 C 18,9 C 17,3 C 78 % 1022,7 hPa 0,0 l/m 0 min 0 min 209 W/m 9,7 km/h (2 Bft) 95,74 %
19.07.2021 10:54 19,0 C 19,4 C 17,3 C 78 % 1022,7 hPa 0,0 l/m 0 min 0 min 214 W/m 9,7 km/h (2 Bft) 95,74 %
19.07.2021 10:56 19,0 C 19,4 C 17,3 C 78 % 1022,7 hPa 0,0 l/m 0 min 0 min 217 W/m 16,1 km/h (3 Bft) 95,65 %
19.07.2021 10:58 19,0 C 19,4 C 17,3 C 78 % 1022,7 hPa 0,0 l/m 0 min 0 min 207 W/m 6,4 km/h (2 Bft) 95,74 %
19.07.2021 11:00 19,0 C 19,4 C 17,3 C 78 % 1022,7 hPa 0,0 l/m 0 min 0 min 204 W/m 9,7 km/h (2 Bft) 93,62 %
19.07.2021 11:02 19,0 C 18,9 C 17,3 C 77 % 1022,8 hPa 0,0 l/m 0 min 0 min 215 W/m 12,9 km/h (3 Bft) 93,62 %
19.07.2021 11:04 19,0 C 18,9 C 17,3 C 77 % 1022,7 hPa 0,0 l/m 0 min 0 min 212 W/m 9,7 km/h (2 Bft) 95,74 %
19.07.2021 11:06 19,0 C 18,9 C 17,3 C 77 % 1022,7 hPa 0,0 l/m 0 min 0 min 198 W/m 12,9 km/h (3 Bft) 93,62 %
19.07.2021 11:08 19,0 C 19,4 C 17,3 C 77 % 1022,7 hPa 0,0 l/m 0 min 0 min 190 W/m 16,1 km/h (3 Bft) 93,10 %
19.07.2021 11:10 19,0 C 18,9 C 17,3 C 76 % 1022,7 hPa 0,0 l/m 0 min 0 min 195 W/m 12,9 km/h (3 Bft) 94,29 %
19.07.2021 11:12 19,0 C 18,9 C 17,3 C 76 % 1022,6 hPa 0,0 l/m 0 min 0 min 214 W/m 16,1 km/h (3 Bft) 95,74 %
19.07.2021 11:14 19,0 C 18,9 C 17,3 C 76 % 1022,7 hPa 0,0 l/m 0 min 0 min 226 W/m 12,9 km/h (3 Bft) 96,00 %
19.07.2021 11:16 19,1 C 19,4 C 17,3 C 77 % 1022,7 hPa 0,0 l/m 0 min 0 min 231 W/m 9,7 km/h (2 Bft) 95,74 %
19.07.2021 11:18 19,1 C 19,4 C 17,8 C 77 % 1022,6 hPa 0,0 l/m 0 min 0 min 247 W/m 9,7 km/h (2 Bft) 93,48 %
19.07.2021 11:20 19,2 C 19,4 C 17,8 C 77 % 1022,6 hPa 0,0 l/m 0 min 0 min 268 W/m 12,9 km/h (3 Bft) 97,87 %
19.07.2021 11:22 19,2 C 20,0 C 17,8 C 77 % 1022,6 hPa 0,0 l/m 0 min 0 min 286 W/m 12,9 km/h (3 Bft) 97,87 %
19.07.2021 11:24 19,3 C 20,0 C 17,8 C 77 % 1022,6 hPa 0,0 l/m 0 min 0 min 306 W/m 16,1 km/h (3 Bft) 95,92 %
19.07.2021 11:26 19,4 C 20,0 C 17,8 C 77 % 1022,6 hPa 0,0 l/m 0 min 0 min 315 W/m 12,9 km/h (3 Bft) 100,00 %
19.07.2021 11:28 19,4 C 20,0 C 17,8 C 76 % 1022,6 hPa 0,0 l/m 0 min 0 min 287 W/m 12,9 km/h (3 Bft) 97,87 %
19.07.2021 11:30 19,4 C 20,0 C 17,8 C 76 % 1022,7 hPa 0,0 l/m 0 min 0 min 261 W/m 16,1 km/h (3 Bft) 100,00 %
19.07.2021 11:32 19,5 C 20,0 C 17,8 C 75 % 1022,7 hPa 0,0 l/m 0 min 0 min 244 W/m 16,1 km/h (3 Bft) 95,74 %
19.07.2021 11:34 19,5 C 20,0 C 17,8 C 75 % 1022,7 hPa 0,0 l/m 0 min 0 min 238 W/m 19,3 km/h (3 Bft) 97,83 %
19.07.2021 11:36 19,5 C 20,0 C 17,8 C 75 % 1022,6 hPa 0,0 l/m 0 min 0 min 241 W/m 6,4 km/h (2 Bft) 97,87 %
19.07.2021 11:38 19,5 C 20,0 C 17,8 C 75 % 1022,7 hPa 0,0 l/m 0 min 0 min 254 W/m 9,7 km/h (2 Bft) 97,87 %
19.07.2021 11:40 19,5 C 19,4 C 17,8 C 74 % 1022,6 hPa 0,0 l/m 0 min 0 min 272 W/m 12,9 km/h (3 Bft) 97,87 %
19.07.2021 11:42 19,5 C 20,0 C 17,8 C 75 % 1022,6 hPa 0,0 l/m 0 min 0 min 281 W/m 9,7 km/h (2 Bft) 97,87 %
19.07.2021 11:44 19,5 C 20,0 C 17,8 C 76 % 1022,6 hPa 0,0 l/m 0 min 0 min 283 W/m 9,7 km/h (2 Bft) 97,87 %
19.07.2021 11:46 19,6 C 20,0 C 17,8 C 75 % 1022,6 hPa 0,0 l/m 0 min 0 min 306 W/m 16,1 km/h (3 Bft) 97,83 %
19.07.2021 11:48 19,6 C 20,0 C 17,8 C 75 % 1022,6 hPa 0,0 l/m 0 min 0 min 336 W/m 9,7 km/h (2 Bft) 97,87 %
19.07.2021 11:50 19,6 C 20,6 C 18,4 C 75 % 1022,6 hPa 0,0 l/m 0 min 0 min 335 W/m 9,7 km/h (2 Bft) 95,74 %
19.07.2021 11:52 19,7 C 20,6 C 18,4 C 75 % 1022,6 hPa 0,0 l/m 0 min 0 min 349 W/m 9,7 km/h (2 Bft) 97,87 %
19.07.2021 11:54 19,8 C 20,6 C 18,4 C 75 % 1022,6 hPa 0,0 l/m 0 min 0 min 350 W/m 12,9 km/h (3 Bft) 97,87 %
19.07.2021 11:56 19,8 C 20,6 C 18,4 C 74 % 1022,6 hPa 0,0 l/m 0 min 0 min 359 W/m 12,9 km/h (3 Bft) 97,87 %
19.07.2021 11:58 19,8 C 20,6 C 18,4 C 73 % 1022,6 hPa 0,0 l/m 0 min 0 min 346 W/m 9,7 km/h (2 Bft) 97,83 %
19.07.2021 12:00 19,8 C 20,6 C 18,4 C 73 % 1022,6 hPa 0,0 l/m 0 min 0 min 309 W/m 16,1 km/h (3 Bft) 97,87 %
19.07.2021 12:02 19,8 C 20,0 C 17,8 C 73 % 1022,6 hPa 0,0 l/m 0 min 0 min 308 W/m 19,3 km/h (3 Bft) 97,87 %
19.07.2021 12:04 19,8 C 20,6 C 18,4 C 73 % 1022,5 hPa 0,0 l/m 0 min 0 min 335 W/m 19,3 km/h (3 Bft) 95,74 %
19.07.2021 12:08 19,9 C 20,6 C 18,4 C 73 % 1022,6 hPa 0,0 l/m 0 min 0 min 340 W/m 16,1 km/h (3 Bft) 96,81 %
19.07.2021 12:10 19,9 C 20,6 C 18,4 C 73 % 1022,6 hPa 0,0 l/m 0 min 0 min 381 W/m 9,7 km/h (2 Bft) 97,83 %
19.07.2021 12:12 20,0 C 21,1 C 18,9 C 73 % 1022,6 hPa 0,0 l/m 2 min 0 min 424 W/m 9,7 km/h (2 Bft) 100,00 %
19.07.2021 12:14 20,0 C 21,1 C 18,9 C 74 % 1022,5 hPa 0,0 l/m 2 min 0 min 423 W/m 9,7 km/h (2 Bft) 100,00 %
19.07.2021 12:16 20,1 C 21,7 C 18,9 C 74 % 1022,5 hPa 0,0 l/m 2 min 0 min 406 W/m 9,7 km/h (2 Bft) 100,00 %
19.07.2021 12:18 20,1 C 21,1 C 18,9 C 72 % 1022,5 hPa 0,0 l/m 0 min 0 min 365 W/m 12,9 km/h (3 Bft) 100,00 %
19.07.2021 12:20 20,2 C 21,1 C 18,9 C 72 % 1022,5 hPa 0,0 l/m 0 min 0 min 325 W/m 6,4 km/h (2 Bft) 100,00 %
19.07.2021 12:22 20,2 C 21,1 C 18,9 C 73 % 1022,5 hPa 0,0 l/m 0 min 0 min 312 W/m 9,7 km/h (2 Bft) 100,00 %
19.07.2021 12:24 20,3 C 21,1 C 18,9 C 72 % 1022,5 hPa 0,0 l/m 0 min 0 min 274 W/m 12,9 km/h (3 Bft) 100,00 %
19.07.2021 12:26 20,3 C 21,1 C 18,4 C 72 % 1022,6 hPa 0,0 l/m 0 min 0 min 236 W/m 9,7 km/h (2 Bft) 100,00 %
19.07.2021 12:28 20,3 C 20,6 C 18,4 C 71 % 1022,5 hPa 0,0 l/m 0 min 0 min 224 W/m 9,7 km/h (2 Bft) 100,00 %
19.07.2021 12:30 20,3 C 20,6 C 18,4 C 72 % 1022,5 hPa 0,0 l/m 0 min 0 min 216 W/m 6,4 km/h (2 Bft) 100,00 %
19.07.2021 12:32 20,3 C 20,6 C 18,4 C 72 % 1022,5 hPa 0,0 l/m 0 min 0 min 223 W/m 9,7 km/h (2 Bft) 95,74 %
19.07.2021 12:34 20,3 C 20,6 C 17,8 C 72 % 1022,5 hPa 0,0 l/m 0 min 0 min 232 W/m 16,1 km/h (3 Bft) 100,00 %
19.07.2021 12:36 20,2 C 20,0 C 17,8 C 72 % 1022,5 hPa 0,0 l/m 0 min 0 min 255 W/m 12,9 km/h (3 Bft) 97,87 %
19.07.2021 12:38 20,2 C 20,6 C 17,8 C 73 % 1022,4 hPa 0,0 l/m 0 min 0 min 300 W/m 9,7 km/h (2 Bft) 100,00 %
19.07.2021 12:40 20,2 C 20,6 C 18,4 C 73 % 1022,4 hPa 0,0 l/m 0 min 0 min 328 W/m 6,4 km/h (2 Bft) 100,00 %
19.07.2021 12:42 20,2 C 20,6 C 18,4 C 73 % 1022,3 hPa 0,0 l/m 0 min 0 min 306 W/m 9,7 km/h (2 Bft) 100,00 %
19.07.2021 12:44 20,3 C 20,6 C 18,4 C 73 % 1022,4 hPa 0,0 l/m 0 min 0 min 291 W/m 12,9 km/h (3 Bft) 100,00 %
19.07.2021 12:46 20,3 C 20,6 C 18,4 C 72 % 1022,4 hPa 0,0 l/m 0 min 0 min 316 W/m 19,3 km/h (3 Bft) 100,00 %
19.07.2021 12:48 20,3 C 20,6 C 18,4 C 72 % 1022,3 hPa 0,0 l/m 0 min 0 min 349 W/m 12,9 km/h (3 Bft) 100,00 %
19.07.2021 12:50 20,1 C 20,6 C 18,4 C 71 % 1022,3 hPa 0,0 l/m 0 min 0 min 363 W/m 9,7 km/h (2 Bft) 100,00 %
19.07.2021 12:52 20,2 C 21,1 C 18,4 C 72 % 1022,3 hPa 0,0 l/m 0 min 0 min 367 W/m 6,4 km/h (2 Bft) 100,00 %
19.07.2021 12:54 20,2 C 21,1 C 18,9 C 73 % 1022,2 hPa 0,0 l/m 0 min 0 min 399 W/m 6,4 km/h (2 Bft) 100,00 %
19.07.2021 12:56 20,3 C 21,1 C 18,9 C 72 % 1022,2 hPa 0,0 l/m 2 min 0 min 428 W/m 12,9 km/h (3 Bft) 100,00 %
19.07.2021 12:58 20,3 C 21,7 C 19,5 C 72 % 1022,2 hPa 0,0 l/m 2 min 0 min 497 W/m 9,7 km/h (2 Bft) 100,00 %
19.07.2021 13:00 20,4 C 22,2 C 20,0 C 72 % 1022,2 hPa 0,0 l/m 2 min 0 min 566 W/m 6,4 km/h (2 Bft) 100,00 %
19.07.2021 13:02 20,5 C 22,2 C 20,0 C 72 % 1022,2 hPa 0,0 l/m 2 min 0 min 535 W/m 6,4 km/h (2 Bft) 100,00 %
19.07.2021 13:04 20,5 C 22,2 C 20,6 C 72 % 1022,2 hPa 0,0 l/m 2 min 0 min 572 W/m 3,2 km/h (1 Bft) 100,00 %
19.07.2021 13:06 20,6 C 22,8 C 20,6 C 72 % 1022,2 hPa 0,0 l/m 2 min 0 min 623 W/m 16,1 km/h (3 Bft) 100,00 %
19.07.2021 13:08 20,7 C 22,8 C 20,6 C 71 % 1022,2 hPa 0,0 l/m 2 min 0 min 677 W/m 12,9 km/h (3 Bft) 100,00 %
19.07.2021 13:10 20,8 C 22,8 C 20,6 C 71 % 1022,1 hPa 0,0 l/m 2 min 0 min 612 W/m 16,1 km/h (3 Bft) 97,87 %
19.07.2021 13:12 20,8 C 22,2 C 20,0 C 70 % 1022,1 hPa 0,0 l/m 2 min 0 min 475 W/m 12,9 km/h (3 Bft) 100,00 %
19.07.2021 13:14 20,7 C 22,2 C 20,0 C 70 % 1022,1 hPa 0,0 l/m 2 min 0 min 498 W/m 9,7 km/h (2 Bft) 100,00 %
19.07.2021 13:16 20,8 C 22,2 C 20,0 C 71 % 1022,1 hPa 0,0 l/m 2 min 0 min 455 W/m 6,4 km/h (2 Bft) 97,87 %
19.07.2021 13:18 20,8 C 22,8 C 19,5 C 71 % 1022,1 hPa 0,0 l/m 0 min 0 min 399 W/m 6,4 km/h (2 Bft) 100,00 %
19.07.2021 13:20 20,9 C 22,8 C 19,5 C 71 % 1022,1 hPa 0,0 l/m 0 min 0 min 343 W/m 6,4 km/h (2 Bft) 97,83 %
19.07.2021 13:22 20,9 C 22,8 C 19,5 C 71 % 1022,1 hPa 0,0 l/m 0 min 0 min 317 W/m 9,7 km/h (2 Bft) 97,87 %
19.07.2021 13:24 20,9 C 22,2 C 19,5 C 71 % 1022,1 hPa 0,0 l/m 0 min 0 min 315 W/m 9,7 km/h (2 Bft) 100,00 %
19.07.2021 13:26 20,9 C 21,7 C 18,9 C 70 % 1022,1 hPa 0,0 l/m 0 min 0 min 310 W/m 6,4 km/h (2 Bft) 97,87 %
19.07.2021 13:28 20,9 C 21,7 C 18,9 C 71 % 1022,0 hPa 0,0 l/m 0 min 0 min 285 W/m 6,4 km/h (2 Bft) 100,00 %
19.07.2021 13:30 20,9 C 21,7 C 18,9 C 71 % 1022,0 hPa 0,0 l/m 0 min 0 min 279 W/m 9,7 km/h (2 Bft) 100,00 %
19.07.2021 13:32 20,9 C 21,7 C 18,9 C 72 % 1022,0 hPa 0,0 l/m 0 min 0 min 309 W/m 6,4 km/h (2 Bft) 100,00 %
19.07.2021 13:34 21,0 C 21,7 C 19,5 C 72 % 1022,0 hPa 0,0 l/m 0 min 0 min 357 W/m 9,7 km/h (2 Bft) 100,00 %
19.07.2021 13:36 21,0 C 21,7 C 19,5 C 72 % 1022,1 hPa 0,0 l/m 0 min 0 min 385 W/m 16,1 km/h (3 Bft) 95,74 %
19.07.2021 13:38 21,0 C 22,2 C 19,5 C 72 % 1022,1 hPa 0,0 l/m 2 min 0 min 439 W/m 16,1 km/h (3 Bft) 100,00 %
19.07.2021 13:40 21,1 C 22,2 C 20,0 C 71 % 1022,1 hPa 0,0 l/m 2 min 0 min 480 W/m 16,1 km/h (3 Bft) 100,00 %
19.07.2021 13:42 21,1 C 22,2 C 20,0 C 70 % 1022,1 hPa 0,0 l/m 2 min 0 min 429 W/m 9,7 km/h (2 Bft) 100,00 %
19.07.2021 13:44 21,1 C 22,2 C 19,5 C 70 % 1022,0 hPa 0,0 l/m 0 min 0 min 413 W/m 6,4 km/h (2 Bft) 100,00 %
19.07.2021 13:46 21,1 C 22,2 C 20,0 C 71 % 1022,0 hPa 0,0 l/m 0 min 0 min 392 W/m 6,4 km/h (2 Bft) 97,87 %
19.07.2021 13:48 21,2 C 22,8 C 20,0 C 71 % 1022,0 hPa 0,0 l/m 0 min 0 min 382 W/m 6,4 km/h (2 Bft) 97,87 %
19.07.2021 13:50 21,1 C 22,2 C 20,0 C 70 % 1022,0 hPa 0,0 l/m 0 min 0 min 408 W/m 9,7 km/h (2 Bft) 95,74 %
19.07.2021 13:52 21,1 C 22,8 C 20,0 C 71 % 1022,0 hPa 0,0 l/m 2 min 0 min 432 W/m 9,7 km/h (2 Bft) 95,74 %
19.07.2021 13:54 21,2 C 22,8 C 20,0 C 71 % 1022,0 hPa 0,0 l/m 0 min 0 min 407 W/m 9,7 km/h (2 Bft) 95,74 %
19.07.2021 13:56 21,2 C 22,2 C 20,0 C 70 % 1022,0 hPa 0,0 l/m 0 min 0 min 404 W/m 9,7 km/h (2 Bft) 95,65 %
19.07.2021 13:58 21,3 C 22,2 C 20,0 C 71 % 1022,0 hPa 0,0 l/m 2 min 0 min 418 W/m 9,7 km/h (2 Bft) 91,49 %
19.07.2021 14:00 21,3 C 22,8 C 20,0 C 71 % 1022,0 hPa 0,0 l/m 0 min 0 min 401 W/m 6,4 km/h (2 Bft) 93,62 %
19.07.2021 14:02 21,4 C 22,8 C 20,0 C 71 % 1021,9 hPa 0,0 l/m 0 min 0 min 365 W/m 12,9 km/h (3 Bft) 93,62 %
19.07.2021 14:04 21,4 C 22,8 C 20,0 C 71 % 1021,9 hPa 0,0 l/m 0 min 0 min 401 W/m 6,4 km/h (2 Bft) 93,62 %
19.07.2021 14:06 21,5 C 22,8 C 20,0 C 71 % 1021,9 hPa 0,0 l/m 2 min 0 min 599 W/m 9,7 km/h (2 Bft) 93,62 %
19.07.2021 14:08 21,5 C 22,8 C 20,0 C 70 % 1021,9 hPa 0,0 l/m 2 min 0 min 535 W/m 6,4 km/h (2 Bft) 89,13 %
19.07.2021 14:10 21,5 C 22,8 C 20,0 C 70 % 1021,9 hPa 0,0 l/m 2 min 0 min 497 W/m 9,7 km/h (2 Bft) 93,62 %
19.07.2021 14:12 21,5 C 22,8 C 20,0 C 70 % 1021,9 hPa 0,0 l/m 0 min 0 min 360 W/m 9,7 km/h (2 Bft) 93,62 %
19.07.2021 14:14 21,5 C 22,8 C 19,5 C 70 % 1021,9 hPa 0,0 l/m 0 min 0 min 357 W/m 12,9 km/h (3 Bft) 95,74 %
19.07.2021 14:16 21,5 C 22,2 C 19,5 C 69 % 1021,9 hPa 0,0 l/m 0 min 0 min 377 W/m 9,7 km/h (2 Bft) 93,62 %
19.07.2021 14:18 21,5 C 22,8 C 19,5 C 70 % 1021,9 hPa 0,0 l/m 0 min 0 min 365 W/m 12,9 km/h (3 Bft) 93,62 %
19.07.2021 14:20 21,6 C 22,2 C 19,5 C 70 % 1021,8 hPa 0,0 l/m 0 min 0 min 348 W/m 12,9 km/h (3 Bft) 93,48 %
19.07.2021 14:22 21,6 C 22,8 C 19,5 C 70 % 1021,8 hPa 0,0 l/m 0 min 0 min 325 W/m 6,4 km/h (2 Bft) 91,49 %
19.07.2021 14:24 21,6 C 22,2 C 19,5 C 69 % 1021,8 hPa 0,0 l/m 0 min 0 min 294 W/m 12,9 km/h (3 Bft) 91,49 %
19.07.2021 14:26 21,5 C 22,2 C 19,5 C 70 % 1021,8 hPa 0,0 l/m 0 min 0 min 324 W/m 12,9 km/h (3 Bft) 91,49 %
19.07.2021 14:28 21,5 C 22,2 C 19,5 C 70 % 1021,7 hPa 0,0 l/m 0 min 0 min 352 W/m 12,9 km/h (3 Bft) 93,62 %
19.07.2021 14:30 21,5 C 22,2 C 19,5 C 70 % 1021,7 hPa 0,0 l/m 0 min 0 min 358 W/m 12,9 km/h (3 Bft) 93,62 %
19.07.2021 14:32 21,5 C 22,2 C 19,5 C 70 % 1021,7 hPa 0,0 l/m 0 min 0 min 364 W/m 6,4 km/h (2 Bft) 95,65 %
19.07.2021 14:34 21,5 C 22,2 C 19,5 C 71 % 1021,7 hPa 0,0 l/m 0 min 0 min 385 W/m 9,7 km/h (2 Bft) 91,49 %
19.07.2021 14:36 21,5 C 22,2 C 19,5 C 70 % 1021,8 hPa 0,0 l/m 2 min 0 min 429 W/m 9,7 km/h (2 Bft) 91,49 %
19.07.2021 14:38 21,5 C 23,3 C 20,0 C 70 % 1021,7 hPa 0,0 l/m 2 min 0 min 436 W/m 16,1 km/h (3 Bft) 93,62 %
19.07.2021 14:40 21,5 C 23,9 C 20,0 C 70 % 1021,7 hPa 0,0 l/m 2 min 0 min 603 W/m 12,9 km/h (3 Bft) 93,62 %
19.07.2021 14:42 21,7 C 23,9 C 20,0 C 70 % 1021,7 hPa 0,0 l/m 2 min 0 min 749 W/m 9,7 km/h (2 Bft) 95,74 %
19.07.2021 14:44 21,8 C 24,4 C 20,0 C 69 % 1021,7 hPa 0,0 l/m 2 min 0 min 749 W/m 9,7 km/h (2 Bft) 97,83 %
19.07.2021 14:46 21,8 C 23,9 C 20,0 C 70 % 1021,6 hPa 0,0 l/m 2 min 0 min 595 W/m 12,9 km/h (3 Bft) 97,87 %
19.07.2021 14:48 21,9 C 23,3 C 20,0 C 68 % 1021,7 hPa 0,0 l/m 2 min 0 min 422 W/m 12,9 km/h (3 Bft) 95,74 %
19.07.2021 14:50 21,9 C 23,3 C 20,0 C 69 % 1021,7 hPa 0,0 l/m 0 min 0 min 400 W/m 12,9 km/h (3 Bft) 100,00 %
19.07.2021 14:52 21,9 C 23,3 C 20,0 C 68 % 1021,6 hPa 0,0 l/m 2 min 0 min 528 W/m 12,9 km/h (3 Bft) 97,87 %
19.07.2021 14:54 21,9 C 23,3 C 20,0 C 69 % 1021,7 hPa 0,0 l/m 2 min 0 min 550 W/m 22,5 km/h (4 Bft) 100,00 %
19.07.2021 14:56 21,9 C 23,3 C 20,0 C 69 % 1021,7 hPa 0,0 l/m 2 min 0 min 488 W/m 9,7 km/h (2 Bft) 100,00 %
19.07.2021 14:58 22,0 C 23,3 C 20,0 C 69 % 1021,7 hPa 0,0 l/m 2 min 0 min 436 W/m 9,7 km/h (2 Bft) 100,00 %
19.07.2021 15:00 22,0 C 23,3 C 20,0 C 69 % 1021,6 hPa 0,0 l/m 2 min 0 min 445 W/m 12,9 km/h (3 Bft) 100,00 %
19.07.2021 15:02 22,0 C 23,3 C 20,0 C 68 % 1021,6 hPa 0,0 l/m 2 min 0 min 421 W/m 12,9 km/h (3 Bft) 95,74 %
19.07.2021 15:04 22,0 C 23,3 C 20,0 C 69 % 1021,6 hPa 0,0 l/m 2 min 0 min 403 W/m 6,4 km/h (2 Bft) 100,00 %
19.07.2021 15:06 22,0 C 22,8 C 20,0 C 68 % 1021,6 hPa 0,0 l/m 0 min 0 min 385 W/m 3,2 km/h (1 Bft) 100,00 %
19.07.2021 15:08 22,0 C 22,8 C 20,0 C 68 % 1021,6 hPa 0,0 l/m 0 min 0 min 393 W/m 12,9 km/h (3 Bft) 100,00 %
19.07.2021 15:10 22,0 C 23,3 C 20,0 C 69 % 1021,7 hPa 0,0 l/m 2 min 0 min 447 W/m 16,1 km/h (3 Bft) 100,00 %
19.07.2021 15:12 22,0 C 22,8 C 20,0 C 68 % 1021,7 hPa 0,0 l/m 2 min 0 min 426 W/m 22,5 km/h (4 Bft) 100,00 %
19.07.2021 15:14 22,0 C 22,8 C 20,0 C 69 % 1021,6 hPa 0,0 l/m 0 min 0 min 323 W/m 16,1 km/h (3 Bft) 100,00 %
19.07.2021 15:16 22,0 C 22,2 C 20,0 C 68 % 1021,6 hPa 0,0 l/m 0 min 0 min 261 W/m 9,7 km/h (2 Bft) 100,00 %
19.07.2021 15:18 22,0 C 22,2 C 19,5 C 69 % 1021,7 hPa 0,0 l/m 0 min 0 min 217 W/m 9,7 km/h (2 Bft) 100,00 %
19.07.2021 15:20 22,0 C 22,2 C 19,5 C 69 % 1021,7 hPa 0,0 l/m 0 min 0 min 184 W/m 9,7 km/h (2 Bft) 100,00 %
19.07.2021 15:22 21,9 C 21,7 C 19,5 C 69 % 1021,7 hPa 0,0 l/m 0 min 0 min 167 W/m 9,7 km/h (2 Bft) 100,00 %
19.07.2021 15:24 21,8 C 21,7 C 19,5 C 68 % 1021,6 hPa 0,0 l/m 0 min 0 min 174 W/m 6,4 km/h (2 Bft) 100,00 %
19.07.2021 15:26 21,6 C 21,1 C 18,9 C 69 % 1021,6 hPa 0,0 l/m 0 min 0 min 189 W/m 6,4 km/h (2 Bft) 100,00 %
19.07.2021 15:28 21,6 C 21,1 C 18,9 C 71 % 1021,6 hPa 0,0 l/m 0 min 0 min 190 W/m 12,9 km/h (3 Bft) 100,00 %
19.07.2021 15:30 21,6 C 21,1 C 18,9 C 71 % 1021,7 hPa 0,0 l/m 0 min 0 min 187 W/m 6,4 km/h (2 Bft) 100,00 %
19.07.2021 15:32 21,5 C 21,1 C 18,9 C 71 % 1021,6 hPa 0,0 l/m 0 min 0 min 193 W/m 12,9 km/h (3 Bft) 100,00 %
19.07.2021 15:34 21,5 C 21,1 C 18,9 C 71 % 1021,6 hPa 0,0 l/m 0 min 0 min 206 W/m 6,4 km/h (2 Bft) 100,00 %
19.07.2021 15:36 21,5 C 21,1 C 18,9 C 71 % 1021,6 hPa 0,0 l/m 0 min 0 min 231 W/m 6,4 km/h (2 Bft) 100,00 %
19.07.2021 15:38 21,5 C 21,1 C 18,9 C 71 % 1021,6 hPa 0,0 l/m 0 min 0 min 269 W/m 6,4 km/h (2 Bft) 100,00 %
19.07.2021 15:40 21,5 C 21,7 C 18,9 C 72 % 1021,6 hPa 0,0 l/m 0 min 0 min 297 W/m 6,4 km/h (2 Bft) 100,00 %
19.07.2021 15:42 21,5 C 21,7 C 19,5 C 72 % 1021,5 hPa 0,0 l/m 0 min 0 min 311 W/m 3,2 km/h (1 Bft) 97,87 %
19.07.2021 15:44 21,5 C 22,2 C 19,5 C 71 % 1021,5 hPa 0,0 l/m 0 min 0 min 343 W/m 6,4 km/h (2 Bft) 100,00 %
19.07.2021 15:46 21,5 C 22,2 C 19,5 C 71 % 1021,5 hPa 0,0 l/m 0 min 0 min 371 W/m 3,2 km/h (1 Bft) 95,74 %
19.07.2021 15:48 21,6 C 22,8 C 19,5 C 72 % 1021,5 hPa 0,0 l/m 2 min 0 min 377 W/m 6,4 km/h (2 Bft) 100,00 %
19.07.2021 15:50 21,7 C 22,8 C 20,0 C 71 % 1021,5 hPa 0,0 l/m 2 min 0 min 399 W/m 6,4 km/h (2 Bft) 97,87 %
19.07.2021 15:52 21,8 C 23,3 C 20,0 C 71 % 1021,5 hPa 0,0 l/m 2 min 0 min 410 W/m 9,7 km/h (2 Bft) 100,00 %
19.07.2021 15:54 21,8 C 23,3 C 20,0 C 70 % 1021,5 hPa 0,0 l/m 2 min 0 min 427 W/m 9,7 km/h (2 Bft) 100,00 %
19.07.2021 15:56 21,8 C 23,3 C 20,0 C 69 % 1021,5 hPa 0,0 l/m 2 min 0 min 475 W/m 9,7 km/h (2 Bft) 95,74 %
19.07.2021 15:58 21,9 C 23,9 C 20,0 C 69 % 1021,4 hPa 0,0 l/m 2 min 0 min 510 W/m 12,9 km/h (3 Bft) 100,00 %
19.07.2021 16:00 22,0 C 23,3 C 20,0 C 69 % 1021,4 hPa 0,0 l/m 2 min 0 min 509 W/m 6,4 km/h (2 Bft) 100,00 %
19.07.2021 16:02 22,0 C 23,3 C 20,0 C 68 % 1021,4 hPa 0,0 l/m 2 min 0 min 473 W/m 6,4 km/h (2 Bft) 97,87 %
19.07.2021 16:04 22,0 C 23,9 C 20,6 C 70 % 1021,4 hPa 0,0 l/m 2 min 0 min 476 W/m 9,7 km/h (2 Bft) 100,00 %
19.07.2021 16:06 22,1 C 23,9 C 20,6 C 69 % 1021,4 hPa 0,0 l/m 2 min 0 min 509 W/m 9,7 km/h (2 Bft) 97,87 %
19.07.2021 16:08 22,2 C 23,9 C 20,6 C 68 % 1021,4 hPa 0,0 l/m 2 min 0 min 507 W/m 12,9 km/h (3 Bft) 100,00 %
19.07.2021 16:10 22,3 C 24,4 C 20,6 C 68 % 1021,4 hPa 0,0 l/m 2 min 0 min 574 W/m 16,1 km/h (3 Bft) 100,00 %
19.07.2021 16:12 22,4 C 24,4 C 20,6 C 67 % 1021,4 hPa 0,0 l/m 2 min 0 min 594 W/m 12,9 km/h (3 Bft) 100,00 %
19.07.2021 16:14 22,5 C 25,0 C 20,6 C 67 % 1021,4 hPa 0,0 l/m 2 min 0 min 614 W/m 6,4 km/h (2 Bft) 100,00 %
19.07.2021 16:16 22,6 C 25,0 C 20,6 C 67 % 1021,3 hPa 0,0 l/m 2 min 0 min 695 W/m 9,7 km/h (2 Bft) 100,00 %
19.07.2021 16:18 22,6 C 25,0 C 20,6 C 67 % 1021,3 hPa 0,0 l/m 2 min 0 min 548 W/m 12,9 km/h (3 Bft) 100,00 %
19.07.2021 16:20 22,6 C 25,0 C 20,6 C 67 % 1021,2 hPa 0,0 l/m 2 min 0 min 512 W/m 9,7 km/h (2 Bft) 100,00 %
19.07.2021 16:22 22,7 C 24,4 C 20,6 C 68 % 1021,3 hPa 0,0 l/m 2 min 0 min 468 W/m 9,7 km/h (2 Bft) 100,00 %
19.07.2021 16:24 22,8 C 25,0 C 20,6 C 68 % 1021,3 hPa 0,0 l/m 2 min 0 min 501 W/m 22,5 km/h (4 Bft) 100,00 %
19.07.2021 16:26 22,8 C 24,4 C 20,6 C 66 % 1021,2 hPa 0,0 l/m 2 min 0 min 572 W/m 19,3 km/h (3 Bft) 100,00 %
19.07.2021 16:28 22,8 C 23,9 C 20,6 C 67 % 1021,2 hPa 0,0 l/m 2 min 0 min 556 W/m 12,9 km/h (3 Bft) 97,87 %
19.07.2021 16:30 22,8 C 23,9 C 20,6 C 67 % 1021,2 hPa 0,0 l/m 2 min 0 min 379 W/m 9,7 km/h (2 Bft) 97,87 %
19.07.2021 16:32 22,7 C 23,3 C 20,6 C 66 % 1021,2 hPa 0,0 l/m 2 min 0 min 377 W/m 9,7 km/h (2 Bft) 95,74 %
19.07.2021 16:34 22,6 C 23,9 C 20,0 C 67 % 1021,2 hPa 0,0 l/m 2 min 0 min 396 W/m 12,9 km/h (3 Bft) 97,83 %
19.07.2021 16:36 22,6 C 23,9 C 20,0 C 68 % 1021,2 hPa 0,0 l/m 2 min 0 min 376 W/m 12,9 km/h (3 Bft) 97,87 %
19.07.2021 16:38 22,5 C 23,3 C 20,0 C 69 % 1021,2 hPa 0,0 l/m 2 min 0 min 362 W/m 9,7 km/h (2 Bft) 97,87 %
19.07.2021 16:40 22,5 C 23,9 C 20,0 C 68 % 1021,1 hPa 0,0 l/m 2 min 0 min 421 W/m 12,9 km/h (3 Bft) 97,87 %
19.07.2021 16:42 22,5 C 24,4 C 20,6 C 69 % 1021,1 hPa 0,0 l/m 2 min 0 min 487 W/m 9,7 km/h (2 Bft) 97,87 %
19.07.2021 16:44 22,6 C 25,0 C 20,6 C 69 % 1021,1 hPa 0,0 l/m 2 min 0 min 426 W/m 22,5 km/h (4 Bft) 97,87 %
19.07.2021 16:46 22,6 C 25,6 C 20,6 C 68 % 1021,1 hPa 0,0 l/m 2 min 0 min 412 W/m 16,1 km/h (3 Bft) 97,83 %
19.07.2021 16:48 22,6 C 25,6 C 20,6 C 67 % 1021,1 hPa 0,0 l/m 2 min 0 min 386 W/m 6,4 km/h (2 Bft) 97,87 %
19.07.2021 16:50 22,6 C 25,6 C 20,0 C 67 % 1021,1 hPa 0,0 l/m 2 min 0 min 460 W/m 16,1 km/h (3 Bft) 95,74 %
19.07.2021 16:52 22,6 C 25,6 C 20,0 C 66 % 1021,1 hPa 0,0 l/m 2 min 0 min 649 W/m 16,1 km/h (3 Bft) 95,74 %
19.07.2021 16:54 22,6 C 26,7 C 20,6 C 68 % 1021,0 hPa 0,0 l/m 2 min 0 min 658 W/m 6,4 km/h (2 Bft) 97,87 %
19.07.2021 16:56 22,8 C 27,2 C 20,6 C 69 % 1021,0 hPa 0,0 l/m 2 min 0 min 662 W/m 9,7 km/h (2 Bft) 97,87 %
19.07.2021 16:58 22,9 C 27,2 C 20,6 C 67 % 1021,0 hPa 0,0 l/m 2 min 0 min 689 W/m 16,1 km/h (3 Bft) 97,83 %
19.07.2021 17:00 23,0 C 26,7 C 21,1 C 67 % 1021,0 hPa 0,0 l/m 2 min 0 min 735 W/m 12,9 km/h (3 Bft) 95,74 %
19.07.2021 17:02 23,0 C 25,6 C 20,6 C 66 % 1021,0 hPa 0,0 l/m 2 min 0 min 469 W/m 9,7 km/h (2 Bft) 97,87 %
19.07.2021 17:04 23,0 C 25,6 C 20,6 C 66 % 1021,0 hPa 0,0 l/m 2 min 0 min 383 W/m 12,9 km/h (3 Bft) 97,87 %
19.07.2021 17:06 23,0 C 25,0 C 20,6 C 66 % 1020,9 hPa 0,0 l/m 2 min 0 min 369 W/m 12,9 km/h (3 Bft) 93,62 %
19.07.2021 17:08 23,0 C 24,4 C 20,6 C 65 % 1020,9 hPa 0,0 l/m 2 min 0 min 356 W/m 9,7 km/h (2 Bft) 97,87 %
19.07.2021 17:10 23,0 C 23,9 C 20,6 C 65 % 1021,0 hPa 0,0 l/m 2 min 0 min 329 W/m 9,7 km/h (2 Bft) 97,83 %
19.07.2021 17:12 23,0 C 23,9 C 20,6 C 65 % 1020,9 hPa 0,0 l/m 0 min 0 min 299 W/m 6,4 km/h (2 Bft) 97,87 %
19.07.2021 17:14 23,0 C 23,9 C 20,6 C 67 % 1020,9 hPa 0,0 l/m 2 min 0 min 320 W/m 12,9 km/h (3 Bft) 95,74 %
19.07.2021 17:16 23,0 C 23,9 C 20,6 C 66 % 1020,9 hPa 0,0 l/m 2 min 0 min 379 W/m 9,7 km/h (2 Bft) 97,87 %
19.07.2021 17:18 23,0 C 24,4 C 20,6 C 66 % 1021,0 hPa 0,0 l/m 2 min 0 min 389 W/m 12,9 km/h (3 Bft) 97,87 %
19.07.2021 17:20 23,1 C 25,6 C 21,1 C 66 % 1021,0 hPa 0,0 l/m 2 min 0 min 394 W/m 12,9 km/h (3 Bft) 95,74 %
19.07.2021 17:22 23,1 C 25,6 C 21,1 C 65 % 1020,9 hPa 0,0 l/m 2 min 0 min 402 W/m 12,9 km/h (3 Bft) 95,65 %
19.07.2021 17:24 23,2 C 25,6 C 21,1 C 65 % 1021,0 hPa 0,0 l/m 2 min 0 min 429 W/m 12,9 km/h (3 Bft) 95,74 %
19.07.2021 17:26 23,3 C 25,6 C 21,1 C 65 % 1021,0 hPa 0,0 l/m 2 min 0 min 384 W/m 12,9 km/h (3 Bft) 95,74 %
19.07.2021 17:28 23,1 C 24,4 C 20,6 C 65 % 1021,0 hPa 0,0 l/m 0 min 0 min 285 W/m 9,7 km/h (2 Bft) 95,74 %
19.07.2021 17:30 23,1 C 23,9 C 20,6 C 66 % 1021,0 hPa 0,0 l/m 0 min 0 min 230 W/m 12,9 km/h (3 Bft) 95,74 %
19.07.2021 17:32 23,1 C 23,9 C 20,6 C 66 % 1021,0 hPa 0,0 l/m 0 min 0 min 220 W/m 12,9 km/h (3 Bft) 95,74 %
19.07.2021 17:34 23,0 C 23,9 C 20,6 C 66 % 1021,0 hPa 0,0 l/m 2 min 0 min 284 W/m 12,9 km/h (3 Bft) 93,48 %
19.07.2021 17:36 23,0 C 23,9 C 20,6 C 65 % 1020,9 hPa 0,0 l/m 0 min 0 min 271 W/m 9,7 km/h (2 Bft) 95,74 %
19.07.2021 17:38 23,0 C 24,4 C 20,6 C 65 % 1020,9 hPa 0,0 l/m 2 min 0 min 337 W/m 9,7 km/h (2 Bft) 93,62 %
19.07.2021 17:40 23,0 C 24,4 C 20,6 C 66 % 1020,9 hPa 0,0 l/m 2 min 0 min 378 W/m 16,1 km/h (3 Bft) 95,74 %
19.07.2021 17:42 23,0 C 23,9 C 20,6 C 66 % 1020,9 hPa 0,0 l/m 0 min 0 min 260 W/m 12,9 km/h (3 Bft) 95,74 %
19.07.2021 17:44 23,0 C 25,0 C 20,6 C 66 % 1020,9 hPa 0,0 l/m 2 min 0 min 348 W/m 16,1 km/h (3 Bft) 95,74 %
19.07.2021 17:46 23,0 C 25,6 C 20,6 C 66 % 1020,8 hPa 0,0 l/m 2 min 0 min 494 W/m 12,9 km/h (3 Bft) 93,48 %
19.07.2021 17:48 23,0 C 25,6 C 20,6 C 65 % 1020,8 hPa 0,0 l/m 2 min 0 min 419 W/m 12,9 km/h (3 Bft) 95,74 %
19.07.2021 17:50 23,0 C 25,0 C 20,6 C 65 % 1020,8 hPa 0,0 l/m 0 min 0 min 229 W/m 6,4 km/h (2 Bft) 95,74 %
19.07.2021 17:52 23,0 C 25,6 C 20,6 C 66 % 1020,7 hPa 0,0 l/m 2 min 0 min 442 W/m 12,9 km/h (3 Bft) 95,74 %
19.07.2021 17:54 23,1 C 26,1 C 20,6 C 67 % 1020,7 hPa 0,0 l/m 2 min 0 min 458 W/m 12,9 km/h (3 Bft) 95,74 %
19.07.2021 17:56 23,0 C 25,6 C 20,6 C 65 % 1020,7 hPa 0,0 l/m 2 min 0 min 371 W/m 6,4 km/h (2 Bft) 95,65 %
19.07.2021 17:58 23,1 C 25,6 C 20,6 C 67 % 1020,7 hPa 0,0 l/m 2 min 0 min 296 W/m 9,7 km/h (2 Bft) 97,87 %
19.07.2021 18:00 23,1 C 25,0 C 20,6 C 66 % 1020,7 hPa 0,0 l/m 2 min 0 min 323 W/m 12,9 km/h (3 Bft) 93,62 %
19.07.2021 18:02 23,1 C 24,4 C 20,6 C 65 % 1020,7 hPa 0,0 l/m 2 min 0 min 279 W/m 9,7 km/h (2 Bft) 95,74 %
19.07.2021 18:04 23,1 C 25,0 C 20,0 C 66 % 1020,7 hPa 0,0 l/m 2 min 0 min 273 W/m 6,4 km/h (2 Bft) 95,74 %
19.07.2021 18:08 23,1 C 26,1 C 20,6 C 67 % 1020,7 hPa 0,0 l/m 4 min 0 min 430 W/m 12,9 km/h (3 Bft) 97,00 %
19.07.2021 18:10 23,3 C 26,7 C 20,6 C 66 % 1020,7 hPa 0,0 l/m 2 min 0 min 480 W/m 6,4 km/h (2 Bft) 97,87 %
19.07.2021 18:12 23,3 C 26,7 C 20,6 C 66 % 1020,7 hPa 0,0 l/m 2 min 0 min 489 W/m 6,4 km/h (2 Bft) 97,87 %
19.07.2021 18:14 23,4 C 26,7 C 21,1 C 66 % 1020,7 hPa 0,0 l/m 2 min 0 min 491 W/m 22,5 km/h (4 Bft) 100,00 %
19.07.2021 18:16 23,5 C 26,7 C 21,1 C 66 % 1020,7 hPa 0,0 l/m 2 min 0 min 500 W/m 16,1 km/h (3 Bft) 100,00 %
19.07.2021 18:18 23,5 C 26,1 C 21,1 C 65 % 1020,7 hPa 0,0 l/m 2 min 0 min 410 W/m 6,4 km/h (2 Bft) 97,87 %
19.07.2021 18:20 23,5 C 26,1 C 21,1 C 65 % 1020,7 hPa 0,0 l/m 2 min 0 min 283 W/m 12,9 km/h (3 Bft) 100,00 %
19.07.2021 18:22 23,5 C 25,0 C 20,6 C 66 % 1020,7 hPa 0,0 l/m 2 min 0 min 238 W/m 6,4 km/h (2 Bft) 100,00 %
19.07.2021 18:24 23,4 C 24,4 C 20,6 C 66 % 1020,7 hPa 0,0 l/m 0 min 0 min 219 W/m 6,4 km/h (2 Bft) 100,00 %
19.07.2021 18:26 23,3 C 23,3 C 20,6 C 65 % 1020,7 hPa 0,0 l/m 0 min 0 min 204 W/m 6,4 km/h (2 Bft) 100,00 %
19.07.2021 18:28 23,1 C 23,3 C 20,0 C 66 % 1020,6 hPa 0,0 l/m 0 min 0 min 193 W/m 12,9 km/h (3 Bft) 100,00 %
19.07.2021 18:30 23,1 C 22,8 C 20,0 C 66 % 1020,6 hPa 0,0 l/m 0 min 0 min 181 W/m 16,1 km/h (3 Bft) 100,00 %
19.07.2021 18:32 23,0 C 22,8 C 20,0 C 66 % 1020,6 hPa 0,0 l/m 0 min 0 min 174 W/m 16,1 km/h (3 Bft) 100,00 %
19.07.2021 18:34 23,0 C 22,8 C 20,0 C 66 % 1020,6 hPa 0,0 l/m 0 min 0 min 159 W/m 12,9 km/h (3 Bft) 100,00 %
19.07.2021 18:36 22,9 C 22,2 C 20,0 C 66 % 1020,7 hPa 0,0 l/m 0 min 0 min 138 W/m 12,9 km/h (3 Bft) 97,87 %
19.07.2021 18:38 22,8 C 22,2 C 20,0 C 67 % 1020,7 hPa 0,0 l/m 0 min 0 min 124 W/m 9,7 km/h (2 Bft) 100,00 %
19.07.2021 18:40 22,8 C 22,2 C 20,0 C 68 % 1020,6 hPa 0,0 l/m 0 min 0 min 126 W/m 6,4 km/h (2 Bft) 100,00 %
19.07.2021 18:42 22,7 C 22,2 C 20,0 C 67 % 1020,6 hPa 0,0 l/m 0 min 0 min 137 W/m 9,7 km/h (2 Bft) 100,00 %
19.07.2021 18:44 22,6 C 22,2 C 20,0 C 67 % 1020,6 hPa 0,0 l/m 0 min 0 min 160 W/m 19,3 km/h (3 Bft) 100,00 %
19.07.2021 18:46 22,6 C 22,2 C 20,0 C 67 % 1020,7 hPa 0,0 l/m 0 min 0 min 171 W/m 12,9 km/h (3 Bft) 100,00 %
19.07.2021 18:48 22,6 C 22,8 C 20,0 C 67 % 1020,6 hPa 0,0 l/m 2 min 0 min 213 W/m 16,1 km/h (3 Bft) 100,00 %
19.07.2021 18:50 22,6 C 23,9 C 20,0 C 67 % 1020,6 hPa 0,0 l/m 2 min 0 min 348 W/m 12,9 km/h (3 Bft) 100,00 %
19.07.2021 18:52 22,6 C 25,0 C 20,6 C 67 % 1020,5 hPa 0,0 l/m 2 min 0 min 360 W/m 16,1 km/h (3 Bft) 100,00 %
19.07.2021 18:54 22,6 C 25,0 C 20,6 C 67 % 1020,6 hPa 0,0 l/m 2 min 0 min 330 W/m 12,9 km/h (3 Bft) 100,00 %
19.07.2021 18:56 22,6 C 25,0 C 20,6 C 67 % 1020,5 hPa 0,0 l/m 2 min 0 min 273 W/m 19,3 km/h (3 Bft) 100,00 %
19.07.2021 18:58 22,6 C 23,9 C 20,0 C 66 % 1020,5 hPa 0,0 l/m 2 min 0 min 203 W/m 19,3 km/h (3 Bft) 100,00 %
19.07.2021 19:00 22,6 C 23,3 C 20,0 C 67 % 1020,5 hPa 0,0 l/m 0 min 0 min 181 W/m 12,9 km/h (3 Bft) 100,00 %
19.07.2021 19:02 22,6 C 22,8 C 20,0 C 67 % 1020,5 hPa 0,0 l/m 2 min 0 min 182 W/m 16,1 km/h (3 Bft) 97,83 %
19.07.2021 19:04 22,6 C 23,3 C 20,0 C 68 % 1020,4 hPa 0,0 l/m 2 min 0 min 200 W/m 9,7 km/h (2 Bft) 97,87 %
19.07.2021 19:06 22,6 C 23,3 C 20,0 C 68 % 1020,5 hPa 0,0 l/m 2 min 0 min 245 W/m 16,1 km/h (3 Bft) 95,74 %
19.07.2021 19:08 22,5 C 23,3 C 20,0 C 67 % 1020,4 hPa 0,0 l/m 2 min 0 min 218 W/m 9,7 km/h (2 Bft) 97,87 %
19.07.2021 19:10 22,5 C 22,8 C 19,5 C 68 % 1020,4 hPa 0,0 l/m 0 min 0 min 149 W/m 12,9 km/h (3 Bft) 97,87 %
19.07.2021 19:12 22,5 C 22,8 C 19,5 C 68 % 1020,5 hPa 0,0 l/m 0 min 0 min 140 W/m 16,1 km/h (3 Bft) 97,87 %
19.07.2021 19:14 22,4 C 22,2 C 19,5 C 67 % 1020,5 hPa 0,0 l/m 0 min 0 min 131 W/m 12,9 km/h (3 Bft) 97,83 %
19.07.2021 19:16 22,4 C 22,2 C 19,5 C 67 % 1020,4 hPa 0,0 l/m 0 min 0 min 117 W/m 9,7 km/h (2 Bft) 97,87 %
19.07.2021 19:18 22,4 C 22,2 C 19,5 C 66 % 1020,5 hPa 0,0 l/m 0 min 0 min 116 W/m 16,1 km/h (3 Bft) 95,74 %
19.07.2021 19:20 22,3 C 22,2 C 19,5 C 67 % 1020,4 hPa 0,0 l/m 0 min 0 min 121 W/m 9,7 km/h (2 Bft) 97,87 %
19.07.2021 19:22 22,3 C 21,7 C 18,9 C 67 % 1020,4 hPa 0,0 l/m 0 min 0 min 108 W/m 19,3 km/h (3 Bft) 93,62 %
19.07.2021 19:24 22,2 C 21,7 C 18,9 C 67 % 1020,5 hPa 0,0 l/m 0 min 0 min 108 W/m 9,7 km/h (2 Bft) 97,87 %
19.07.2021 19:26 22,1 C 21,7 C 18,9 C 68 % 1020,4 hPa 0,0 l/m 0 min 0 min 121 W/m 9,7 km/h (2 Bft) 97,83 %
19.07.2021 19:28 22,0 C 21,7 C 18,9 C 68 % 1020,4 hPa 0,0 l/m 0 min 0 min 119 W/m 12,9 km/h (3 Bft) 97,87 %
19.07.2021 19:30 22,0 C 21,7 C 18,9 C 68 % 1020,4 hPa 0,0 l/m 0 min 0 min 137 W/m 3,2 km/h (1 Bft) 97,87 %
19.07.2021 19:32 21,9 C 21,7 C 18,9 C 68 % 1020,4 hPa 0,0 l/m 2 min 0 min 147 W/m 9,7 km/h (2 Bft) 97,87 %
19.07.2021 19:34 21,9 C 21,7 C 18,9 C 69 % 1020,4 hPa 0,0 l/m 2 min 0 min 182 W/m 16,1 km/h (3 Bft) 97,87 %
19.07.2021 19:36 21,9 C 21,7 C 18,9 C 69 % 1020,4 hPa 0,0 l/m 2 min 0 min 185 W/m 12,9 km/h (3 Bft) 97,87 %
19.07.2021 19:38 21,9 C 21,7 C 18,9 C 68 % 1020,3 hPa 0,0 l/m 2 min 0 min 196 W/m 12,9 km/h (3 Bft) 97,87 %
19.07.2021 19:40 21,9 C 21,7 C 18,9 C 69 % 1020,3 hPa 0,0 l/m 2 min 0 min 195 W/m 12,9 km/h (3 Bft) 95,74 %
19.07.2021 19:42 21,9 C 21,7 C 18,9 C 69 % 1020,3 hPa 0,0 l/m 2 min 0 min 188 W/m 9,7 km/h (2 Bft) 97,87 %
19.07.2021 19:44 21,9 C 21,7 C 18,9 C 69 % 1020,3 hPa 0,0 l/m 2 min 0 min 179 W/m 9,7 km/h (2 Bft) 100,00 %
19.07.2021 19:46 21,9 C 21,7 C 18,9 C 69 % 1020,3 hPa 0,0 l/m 2 min 0 min 146 W/m 12,9 km/h (3 Bft) 100,00 %
19.07.2021 19:48 21,9 C 21,7 C 18,9 C 69 % 1020,3 hPa 0,0 l/m 2 min 0 min 146 W/m 6,4 km/h (2 Bft) 100,00 %
19.07.2021 19:50 21,9 C 21,7 C 18,9 C 69 % 1020,3 hPa 0,0 l/m 0 min 0 min 116 W/m 9,7 km/h (2 Bft) 100,00 %
19.07.2021 19:52 21,9 C 21,7 C 18,9 C 69 % 1020,3 hPa 0,0 l/m 0 min 0 min 99 W/m 6,4 km/h (2 Bft) 100,00 %
19.07.2021 19:54 21,9 C 21,7 C 18,9 C 69 % 1020,3 hPa 0,0 l/m 0 min 0 min 96 W/m 9,7 km/h (2 Bft) 100,00 %
19.07.2021 19:56 21,9 C 21,7 C 18,9 C 68 % 1020,3 hPa 0,0 l/m 0 min 0 min 92 W/m 12,9 km/h (3 Bft) 97,87 %
19.07.2021 19:58 21,8 C 21,1 C 18,9 C 69 % 1020,3 hPa 0,0 l/m 0 min 0 min 91 W/m 12,9 km/h (3 Bft) 100,00 %
19.07.2021 20:00 21,8 C 21,1 C 18,9 C 69 % 1020,3 hPa 0,0 l/m 0 min 0 min 90 W/m 19,3 km/h (3 Bft) 97,83 %
19.07.2021 20:02 21,8 C 21,1 C 18,9 C 70 % 1020,2 hPa 0,0 l/m 0 min 0 min 87 W/m 9,7 km/h (2 Bft) 100,00 %
19.07.2021 20:04 21,7 C 21,1 C 18,4 C 70 % 1020,2 hPa 0,0 l/m 0 min 0 min 84 W/m 12,9 km/h (3 Bft) 97,87 %
19.07.2021 20:06 21,7 C 21,1 C 18,4 C 70 % 1020,2 hPa 0,0 l/m 0 min 0 min 81 W/m 6,4 km/h (2 Bft) 100,00 %
19.07.2021 20:08 21,6 C 21,1 C 18,4 C 70 % 1020,2 hPa 0,0 l/m 0 min 0 min 79 W/m 9,7 km/h (2 Bft) 100,00 %
19.07.2021 20:10 21,6 C 21,1 C 18,4 C 71 % 1020,2 hPa 0,0 l/m 0 min 0 min 76 W/m 9,7 km/h (2 Bft) 100,00 %
19.07.2021 20:12 21,5 C 20,6 C 18,4 C 70 % 1020,3 hPa 0,0 l/m 0 min 0 min 70 W/m 16,1 km/h (3 Bft) 100,00 %
19.07.2021 20:14 21,5 C 20,6 C 18,4 C 71 % 1020,3 hPa 0,0 l/m 0 min 0 min 71 W/m 12,9 km/h (3 Bft) 95,74 %
19.07.2021 20:16 21,4 C 20,6 C 18,4 C 71 % 1020,3 hPa 0,0 l/m 0 min 0 min 67 W/m 12,9 km/h (3 Bft) 97,87 %
19.07.2021 20:18 21,4 C 20,6 C 18,4 C 71 % 1020,3 hPa 0,0 l/m 0 min 0 min 65 W/m 6,4 km/h (2 Bft) 97,87 %
19.07.2021 20:20 21,4 C 20,6 C 18,4 C 71 % 1020,3 hPa 0,0 l/m 0 min 0 min 64 W/m 9,7 km/h (2 Bft) 97,87 %
19.07.2021 20:22 21,3 C 20,6 C 17,8 C 72 % 1020,3 hPa 0,0 l/m 0 min 0 min 62 W/m 12,9 km/h (3 Bft) 97,87 %
19.07.2021 20:24 21,3 C 20,6 C 17,8 C 72 % 1020,3 hPa 0,0 l/m 0 min 0 min 60 W/m 9,7 km/h (2 Bft) 97,83 %
19.07.2021 20:26 21,3 C 20,6 C 17,8 C 72 % 1020,3 hPa 0,0 l/m 0 min 0 min 60 W/m 9,7 km/h (2 Bft) 95,74 %
19.07.2021 20:28 21,2 C 20,6 C 17,8 C 73 % 1020,3 hPa 0,0 l/m 0 min 0 min 57 W/m 19,3 km/h (3 Bft) 97,87 %
19.07.2021 20:30 21,2 C 20,6 C 17,8 C 73 % 1020,3 hPa 0,0 l/m 0 min 0 min 55 W/m 9,7 km/h (2 Bft) 97,87 %
19.07.2021 20:32 21,1 C 20,0 C 17,8 C 73 % 1020,3 hPa 0,0 l/m 0 min 0 min 53 W/m 12,9 km/h (3 Bft) 97,87 %
19.07.2021 20:34 21,1 C 20,0 C 17,8 C 73 % 1020,2 hPa 0,0 l/m 0 min 0 min 51 W/m 6,4 km/h (2 Bft) 97,87 %
19.07.2021 20:36 21,0 C 20,0 C 17,8 C 73 % 1020,2 hPa 0,0 l/m 0 min 0 min 49 W/m 6,4 km/h (2 Bft) 95,65 %
19.07.2021 20:38 21,0 C 20,0 C 17,8 C 73 % 1020,2 hPa 0,0 l/m 0 min 0 min 48 W/m 6,4 km/h (2 Bft) 97,87 %
19.07.2021 20:40 21,0 C 20,0 C 17,8 C 72 % 1020,2 hPa 0,0 l/m 0 min 0 min 46 W/m 6,4 km/h (2 Bft) 97,87 %
19.07.2021 20:42 21,0 C 20,0 C 17,8 C 72 % 1020,1 hPa 0,0 l/m 0 min 0 min 45 W/m 9,7 km/h (2 Bft) 97,87 %
19.07.2021 20:44 20,9 C 20,0 C 17,8 C 72 % 1020,2 hPa 0,0 l/m 0 min 0 min 44 W/m 6,4 km/h (2 Bft) 97,87 %
19.07.2021 20:46 20,9 C 20,0 C 17,8 C 72 % 1020,1 hPa 0,0 l/m 0 min 0 min 41 W/m 6,4 km/h (2 Bft) 97,87 %
19.07.2021 20:48 20,9 C 20,0 C 17,8 C 72 % 1020,2 hPa 0,0 l/m 0 min 0 min 39 W/m 12,9 km/h (3 Bft) 95,65 %
19.07.2021 20:50 20,9 C 20,0 C 17,3 C 72 % 1020,2 hPa 0,0 l/m 0 min 0 min 38 W/m 6,4 km/h (2 Bft) 95,74 %
19.07.2021 20:52 20,9 C 20,0 C 17,3 C 73 % 1020,3 hPa 0,0 l/m 0 min 0 min 35 W/m 9,7 km/h (2 Bft) 95,74 %
19.07.2021 20:54 20,8 C 20,0 C 17,3 C 73 % 1020,2 hPa 0,0 l/m 0 min 0 min 33 W/m 9,7 km/h (2 Bft) 95,74 %
19.07.2021 20:56 20,8 C 20,0 C 17,3 C 73 % 1020,2 hPa 0,0 l/m 0 min 0 min 32 W/m 3,2 km/h (1 Bft) 97,87 %
19.07.2021 20:58 20,8 C 20,0 C 17,3 C 73 % 1020,2 hPa 0,0 l/m 0 min 0 min 31 W/m 6,4 km/h (2 Bft) 91,49 %
19.07.2021 21:00 20,7 C 19,4 C 17,3 C 73 % 1020,3 hPa 0,0 l/m 0 min 0 min 30 W/m 6,4 km/h (2 Bft) 95,65 %
19.07.2021 21:02 20,6 C 19,4 C 17,3 C 73 % 1020,3 hPa 0,0 l/m 0 min 0 min 28 W/m 16,1 km/h (3 Bft) 97,87 %
19.07.2021 21:04 20,6 C 19,4 C 17,3 C 74 % 1020,2 hPa 0,0 l/m 0 min 0 min 26 W/m 9,7 km/h (2 Bft) 97,87 %
19.07.2021 21:06 20,6 C 19,4 C 17,3 C 74 % 1020,3 hPa 0,0 l/m 0 min 0 min 25 W/m 12,9 km/h (3 Bft) 97,87 %
19.07.2021 21:08 20,5 C 19,4 C 17,3 C 73 % 1020,3 hPa 0,0 l/m 0 min 0 min 24 W/m 16,1 km/h (3 Bft) 97,87 %
19.07.2021 21:10 20,4 C 19,4 C 17,3 C 73 % 1020,3 hPa 0,0 l/m 0 min 0 min 21 W/m 9,7 km/h (2 Bft) 97,87 %
19.07.2021 21:12 20,4 C 19,4 C 17,3 C 73 % 1020,2 hPa 0,0 l/m 0 min 0 min 20 W/m 9,7 km/h (2 Bft) 97,83 %
19.07.2021 21:14 20,4 C 19,4 C 17,3 C 73 % 1020,3 hPa 0,0 l/m 0 min 0 min 18 W/m 9,7 km/h (2 Bft) 97,87 %
19.07.2021 21:16 20,3 C 19,4 C 16,7 C 73 % 1020,2 hPa 0,0 l/m 0 min 0 min 17 W/m 16,1 km/h (3 Bft) 97,87 %
19.07.2021 21:18 20,3 C 19,4 C 16,7 C 73 % 1020,3 hPa 0,0 l/m 0 min 0 min 16 W/m 12,9 km/h (3 Bft) 97,87 %
19.07.2021 21:20 20,3 C 19,4 C 16,7 C 73 % 1020,3 hPa 0,0 l/m 0 min 0 min 14 W/m 3,2 km/h (1 Bft) 97,87 %
19.07.2021 21:22 20,2 C 18,9 C 16,7 C 73 % 1020,3 hPa 0,0 l/m 0 min 0 min 12 W/m 6,4 km/h (2 Bft) 97,87 %
19.07.2021 21:24 20,1 C 18,9 C 16,7 C 73 % 1020,3 hPa 0,0 l/m 0 min 0 min 12 W/m 6,4 km/h (2 Bft) 95,65 %
19.07.2021 21:26 20,1 C 18,9 C 16,7 C 73 % 1020,3 hPa 0,0 l/m 0 min 0 min 11 W/m 6,4 km/h (2 Bft) 95,74 %
19.07.2021 21:28 20,1 C 18,9 C 16,7 C 73 % 1020,3 hPa 0,0 l/m 0 min 0 min 10 W/m 12,9 km/h (3 Bft) 97,87 %
19.07.2021 21:30 20,0 C 18,9 C 16,7 C 73 % 1020,3 hPa 0,0 l/m 0 min 0 min 9 W/m 9,7 km/h (2 Bft) 95,74 %
19.07.2021 21:32 20,0 C 18,9 C 16,7 C 73 % 1020,3 hPa 0,0 l/m 0 min 0 min 7 W/m 6,4 km/h (2 Bft) 97,87 %
19.07.2021 21:34 19,9 C 18,9 C 16,7 C 73 % 1020,4 hPa 0,0 l/m 0 min 0 min 7 W/m 6,4 km/h (2 Bft) 95,74 %
19.07.2021 21:36 19,9 C 18,9 C 16,7 C 73 % 1020,4 hPa 0,0 l/m 0 min 0 min 5 W/m 3,2 km/h (1 Bft) 97,92 %
19.07.2021 21:38 19,9 C 18,9 C 16,1 C 73 % 1020,4 hPa 0,0 l/m 0 min 0 min 5 W/m 9,7 km/h (2 Bft) 95,74 %
19.07.2021 21:40 19,8 C 18,9 C 16,1 C 73 % 1020,4 hPa 0,0 l/m 0 min 0 min 5 W/m 6,4 km/h (2 Bft) 91,49 %
19.07.2021 21:42 19,8 C 18,3 C 16,1 C 73 % 1020,4 hPa 0,0 l/m 0 min 0 min 0 W/m 6,4 km/h (2 Bft) 95,74 %
19.07.2021 21:44 19,8 C 18,3 C 16,1 C 73 % 1020,4 hPa 0,0 l/m 0 min 0 min 0 W/m 6,4 km/h (2 Bft) 97,87 %
19.07.2021 21:46 19,7 C 18,3 C 16,1 C 73 % 1020,5 hPa 0,0 l/m 0 min 0 min 0 W/m 9,7 km/h (2 Bft) 93,48 %
19.07.2021 21:48 19,6 C 18,3 C 16,1 C 73 % 1020,5 hPa 0,0 l/m 0 min 0 min 0 W/m 6,4 km/h (2 Bft) 95,74 %
19.07.2021 21:50 19,6 C 18,3 C 16,1 C 73 % 1020,5 hPa 0,0 l/m 0 min 0 min 0 W/m 3,2 km/h (1 Bft) 97,87 %
19.07.2021 21:52 19,6 C 18,3 C 16,1 C 73 % 1020,5 hPa 0,0 l/m 0 min 0 min 0 W/m 3,2 km/h (1 Bft) 95,74 %
19.07.2021 21:54 19,5 C 18,3 C 16,1 C 73 % 1020,5 hPa 0,0 l/m 0 min 0 min 0 W/m 9,7 km/h (2 Bft) 95,74 %
19.07.2021 21:56 19,5 C 18,3 C 16,1 C 73 % 1020,5 hPa 0,0 l/m 0 min 0 min 0 W/m 9,7 km/h (2 Bft) 95,74 %
19.07.2021 21:58 19,4 C 18,3 C 16,1 C 72 % 1020,5 hPa 0,0 l/m 0 min 0 min 0 W/m 6,4 km/h (2 Bft) 95,65 %
19.07.2021 22:00 19,4 C 18,3 C 16,1 C 73 % 1020,5 hPa 0,0 l/m 0 min 0 min 0 W/m 9,7 km/h (2 Bft) 95,74 %
19.07.2021 22:02 19,3 C 18,3 C 16,1 C 73 % 1020,5 hPa 0,0 l/m 0 min 0 min 0 W/m 6,4 km/h (2 Bft) 97,87 %
19.07.2021 22:04 19,3 C 18,3 C 16,1 C 72 % 1020,5 hPa 0,0 l/m 0 min 0 min 0 W/m 12,9 km/h (3 Bft) 97,87 %
19.07.2021 22:06 19,3 C 18,3 C 15,6 C 72 % 1020,6 hPa 0,0 l/m 0 min 0 min 0 W/m 3,2 km/h (1 Bft) 97,87 %
19.07.2021 22:08 19,2 C 18,3 C 15,6 C 72 % 1020,5 hPa 0,0 l/m 0 min 0 min 0 W/m 9,7 km/h (2 Bft) 97,87 %
19.07.2021 22:10 19,1 C 17,8 C 15,6 C 72 % 1020,5 hPa 0,0 l/m 0 min 0 min 0 W/m 6,4 km/h (2 Bft) 97,83 %
19.07.2021 22:12 19,1 C 17,8 C 15,6 C 73 % 1020,5 hPa 0,0 l/m 0 min 0 min 0 W/m 9,7 km/h (2 Bft) 98,00 %
19.07.2021 22:14 19,1 C 17,8 C 15,6 C 73 % 1020,6 hPa 0,0 l/m 0 min 0 min 0 W/m 3,2 km/h (1 Bft) 95,74 %
19.07.2021 22:16 19,0 C 17,8 C 15,6 C 73 % 1020,6 hPa 0,0 l/m 0 min 0 min 0 W/m 9,7 km/h (2 Bft) 100,00 %
19.07.2021 22:18 19,0 C 17,8 C 15,6 C 73 % 1020,6 hPa 0,0 l/m 0 min 0 min 0 W/m 9,7 km/h (2 Bft) 97,87 %
19.07.2021 22:20 19,0 C 17,8 C 15,6 C 73 % 1020,6 hPa 0,0 l/m 0 min 0 min 0 W/m 6,4 km/h (2 Bft) 97,83 %
19.07.2021 22:22 18,9 C 17,8 C 15,6 C 73 % 1020,6 hPa 0,0 l/m 0 min 0 min 0 W/m 6,4 km/h (2 Bft) 97,87 %
19.07.2021 22:24 18,9 C 17,8 C 15,6 C 73 % 1020,6 hPa 0,0 l/m 0 min 0 min 0 W/m 6,4 km/h (2 Bft) 97,87 %
19.07.2021 22:26 18,9 C 17,8 C 15,6 C 73 % 1020,6 hPa 0,0 l/m 0 min 0 min 0 W/m 12,9 km/h (3 Bft) 95,74 %
19.07.2021 22:28 18,8 C 17,8 C 15,6 C 73 % 1020,6 hPa 0,0 l/m 0 min 0 min 0 W/m 9,7 km/h (2 Bft) 97,87 %
19.07.2021 22:30 18,8 C 17,8 C 15,6 C 73 % 1020,6 hPa 0,0 l/m 0 min 0 min 0 W/m 9,7 km/h (2 Bft) 100,00 %
19.07.2021 22:32 18,8 C 17,8 C 15,6 C 73 % 1020,6 hPa 0,0 l/m 0 min 0 min 0 W/m 3,2 km/h (1 Bft) 100,00 %
19.07.2021 22:34 18,8 C 17,8 C 15,6 C 73 % 1020,6 hPa 0,0 l/m 0 min 0 min 0 W/m 6,4 km/h (2 Bft) 100,00 %
19.07.2021 22:36 18,7 C 17,8 C 15,6 C 73 % 1020,6 hPa 0,0 l/m 0 min 0 min 0 W/m 3,2 km/h (1 Bft) 100,00 %
19.07.2021 22:38 18,7 C 17,2 C 15,6 C 73 % 1020,6 hPa 0,0 l/m 0 min 0 min 0 W/m 9,7 km/h (2 Bft) 100,00 %
19.07.2021 22:40 18,6 C 17,2 C 15,6 C 73 % 1020,6 hPa 0,0 l/m 0 min 0 min 0 W/m 3,2 km/h (1 Bft) 97,87 %
19.07.2021 22:42 18,6 C 17,2 C 15,0 C 74 % 1020,6 hPa 0,0 l/m 0 min 0 min 0 W/m 6,4 km/h (2 Bft) 100,00 %
19.07.2021 22:44 18,6 C 17,2 C 15,0 C 74 % 1020,6 hPa 0,0 l/m 0 min 0 min 0 W/m 3,2 km/h (1 Bft) 100,00 %
19.07.2021 22:46 18,5 C 17,2 C 15,0 C 74 % 1020,7 hPa 0,0 l/m 0 min 0 min 0 W/m 3,2 km/h (1 Bft) 100,00 %
19.07.2021 22:48 18,5 C 17,2 C 15,0 C 74 % 1020,6 hPa 0,0 l/m 0 min 0 min 0 W/m 3,2 km/h (1 Bft) 97,87 %
19.07.2021 22:50 18,5 C 17,2 C 15,0 C 75 % 1020,6 hPa 0,0 l/m 0 min 0 min 0 W/m 6,4 km/h (2 Bft) 97,87 %
19.07.2021 22:52 18,4 C 17,2 C 15,0 C 74 % 1020,6 hPa 0,0 l/m 0 min 0 min 0 W/m 3,2 km/h (1 Bft) 100,00 %
19.07.2021 22:54 18,4 C 17,2 C 15,0 C 74 % 1020,7 hPa 0,0 l/m 0 min 0 min 0 W/m 3,2 km/h (1 Bft) 100,00 %
19.07.2021 22:56 18,4 C 17,2 C 15,0 C 74 % 1020,6 hPa 0,0 l/m 0 min 0 min 0 W/m 3,2 km/h (1 Bft) 97,87 %
19.07.2021 22:58 18,3 C 16,7 C 15,0 C 74 % 1020,7 hPa 0,0 l/m 0 min 0 min 0 W/m 3,2 km/h (1 Bft) 95,65 %
19.07.2021 23:00 18,3 C 16,7 C 15,0 C 75 % 1020,7 hPa 0,0 l/m 0 min 0 min 0 W/m 0,0 km/h (0 Bft) 97,87 %
19.07.2021 23:02 18,3 C 16,7 C 15,0 C 75 % 1020,7 hPa 0,0 l/m 0 min 0 min 0 W/m 3,2 km/h (1 Bft) 95,74 %
19.07.2021 23:04 18,2 C 16,7 C 15,0 C 75 % 1020,7 hPa 0,0 l/m 0 min 0 min 0 W/m 3,2 km/h (1 Bft) 95,74 %
19.07.2021 23:06 18,1 C 16,7 C 15,0 C 75 % 1020,7 hPa 0,0 l/m 0 min 0 min 0 W/m 6,4 km/h (2 Bft) 97,87 %
19.07.2021 23:08 18,1 C 16,7 C 14,5 C 75 % 1020,7 hPa 0,0 l/m 0 min 0 min 0 W/m 3,2 km/h (1 Bft) 95,74 %
19.07.2021 23:10 18,1 C 16,7 C 14,5 C 76 % 1020,7 hPa 0,0 l/m 0 min 0 min 0 W/m 0,0 km/h (0 Bft) 95,74 %
19.07.2021 23:12 18,1 C 16,7 C 14,5 C 76 % 1020,7 hPa 0,0 l/m 0 min 0 min 0 W/m 0,0 km/h (0 Bft) 97,87 %
19.07.2021 23:14 18,0 C 16,7 C 14,5 C 77 % 1020,7 hPa 0,0 l/m 0 min 0 min 0 W/m 6,4 km/h (2 Bft) 95,65 %
19.07.2021 23:16 18,0 C 16,7 C 14,5 C 77 % 1020,7 hPa 0,0 l/m 0 min 0 min 0 W/m 3,2 km/h (1 Bft) 97,87 %
19.07.2021 23:18 17,9 C 16,7 C 14,5 C 76 % 1020,7 hPa 0,0 l/m 0 min 0 min 0 W/m 9,7 km/h (2 Bft) 97,14 %
19.07.2021 23:20 17,9 C 16,7 C 14,5 C 76 % 1020,7 hPa 0,0 l/m 0 min 0 min 0 W/m 6,4 km/h (2 Bft) 98,31 %
19.07.2021 23:22 17,8 C 16,7 C 14,5 C 76 % 1020,7 hPa 0,0 l/m 0 min 0 min 0 W/m 3,2 km/h (1 Bft) 97,87 %
19.07.2021 23:24 17,8 C 16,7 C 14,5 C 76 % 1020,7 hPa 0,0 l/m 0 min 0 min 0 W/m 6,4 km/h (2 Bft) 97,87 %
19.07.2021 23:26 17,7 C 16,7 C 14,5 C 76 % 1020,7 hPa 0,0 l/m 0 min 0 min 0 W/m 3,2 km/h (1 Bft) 97,14 %
19.07.2021 23:28 17,6 C 16,7 C 14,5 C 76 % 1020,7 hPa 0,0 l/m 0 min 0 min 0 W/m 3,2 km/h (1 Bft) 98,28 %
19.07.2021 23:30 17,6 C 16,7 C 14,5 C 76 % 1020,8 hPa 0,0 l/m 0 min 0 min 0 W/m 12,9 km/h (3 Bft) 97,87 %
19.07.2021 23:32 17,6 C 16,7 C 14,5 C 76 % 1020,8 hPa 0,0 l/m 0 min 0 min 0 W/m 9,7 km/h (2 Bft) 97,87 %
19.07.2021 23:34 17,6 C 16,7 C 14,5 C 76 % 1020,7 hPa 0,0 l/m 0 min 0 min 0 W/m 6,4 km/h (2 Bft) 97,87 %
19.07.2021 23:36 17,6 C 16,7 C 14,5 C 76 % 1020,8 hPa 0,0 l/m 0 min 0 min 0 W/m 12,9 km/h (3 Bft) 97,87 %
19.07.2021 23:38 17,5 C 16,7 C 14,5 C 76 % 1020,8 hPa 0,0 l/m 0 min 0 min 0 W/m 9,7 km/h (2 Bft) 100,00 %
19.07.2021 23:40 17,5 C 16,7 C 14,5 C 76 % 1020,7 hPa 0,0 l/m 0 min 0 min 0 W/m 12,9 km/h (3 Bft) 100,00 %
19.07.2021 23:42 17,5 C 16,7 C 14,5 C 76 % 1020,7 hPa 0,0 l/m 0 min 0 min 0 W/m 12,9 km/h (3 Bft) 100,00 %
19.07.2021 23:44 17,5 C 16,7 C 14,5 C 76 % 1020,7 hPa 0,0 l/m 0 min 0 min 0 W/m 9,7 km/h (2 Bft) 100,00 %
19.07.2021 23:46 17,5 C 16,7 C 14,5 C 76 % 1020,7 hPa 0,0 l/m 0 min 0 min 0 W/m 9,7 km/h (2 Bft) 100,00 %
19.07.2021 23:48 17,5 C 16,7 C 14,5 C 76 % 1020,8 hPa 0,0 l/m 0 min 0 min 0 W/m 6,4 km/h (2 Bft) 100,00 %
19.07.2021 23:50 17,5 C 16,7 C 14,5 C 76 % 1020,8 hPa 0,0 l/m 0 min 0 min 0 W/m 6,4 km/h (2 Bft) 100,00 %
19.07.2021 23:52 17,5 C 16,7 C 14,5 C 76 % 1020,8 hPa 0,0 l/m 0 min 0 min 0 W/m 12,9 km/h (3 Bft) 97,87 %
19.07.2021 23:54 17,5 C 16,7 C 14,5 C 76 % 1020,8 hPa 0,0 l/m 0 min 0 min 0 W/m 16,1 km/h (3 Bft) 100,00 %
19.07.2021 23:56 17,4 C 16,7 C 14,5 C 76 % 1020,8 hPa 0,0 l/m 0 min 0 min 0 W/m 16,1 km/h (3 Bft) 97,87 %
19.07.2021 23:58 17,4 C 16,7 C 14,5 C 76 % 1020,8 hPa 0,0 l/m 0 min 0 min 0 W/m 9,7 km/h (2 Bft) 97,87 %
_ Min-Zeit 05:38 05:38 05:04 17:08 20:42 - - - - 00:30 03:16
Minimum _ 15,0 C 13,9 C 13,4 C 65 % 1020,1 hPa - - - - 0,0 km/h (0 Bft) 70,00 %
_ Max-Zeit 18:16 16:56 17:00 06:36 08:52 00:00 18:08 00:00 14:42 14:54 01:00
Maximum _ 23,5 C 27,2 C 21,1 C 94 % 1022,8 hPa 0,0 l/m 4 min 0 min 749 W/m 22,5 km/h
NW (4 Bft)
100,00 %
Durchschnitt _ 19,2 C 19,2 C 17,1 C 78 % 1021,7 hPa #0,0 l/m #4:48 h #0 min. 244 W/m 7,7 km/h (2 Bft) 97,65 %
© 2021 W. Hausmann